/[cits3200i]/trunk/data/Canoe2_HR.gpx


UCC Code Repository

Contents of /trunk/data/Canoe2_HR.gpx

Parent Directory Parent Directory | Revision Log Revision Log


Revision 15 - (show annotations) (download)
Sat Sep 11 14:31:33 2010 UTC (11 years, 2 months ago) by rvvs89
File size: 217068 byte(s)
Adding sample GPX data provided by the client.
1 <?xml version="1.0" encoding="UTF-8"?>
2 <gpx version="1.1" creator="Garmin Connect"
3 xsi:schemaLocation="http://www.topografix.com/GPX/1/1 http://www.topografix.com/GPX/1/1/gpx.xsd http://www.garmin.com/xmlschemas/GpxExtensions/v3 http://www.garmin.com/xmlschemas/GpxExtensionsv3.xsd http://www.garmin.com/xmlschemas/TrackPointExtension/v1 http://www.garmin.com/xmlschemas/TrackPointExtensionv1.xsd"
4 xmlns="http://www.topografix.com/GPX/1/1"
5 xmlns:gpxtpx="http://www.garmin.com/xmlschemas/TrackPointExtension/v1"
6 xmlns:gpxx="http://www.garmin.com/xmlschemas/GpxExtensions/v3" xmlns:xsi="http://www.w3.org/2001/XMLSchema-instance">
7 <metadata>
8 <link href="connect.garmin.com">
9 <text>Garmin Connect</text>
10 </link>
11 <time>2008-11-13T08:50:48.000Z</time>
12 </metadata>
13 <trk>
14 <name>Padlle post video goggles</name>
15 <desc>Good session with dan brody steve and dan</desc>
16 <trkseg>
17 <trkpt lon="115.9204115" lat="-31.9317448">
18 <ele>0.62</ele>
19 <time>2008-11-13T08:50:48.000Z</time>
20 <extensions>
21 <gpxtpx:TrackPointExtension>
22 <gpxtpx:hr>96</gpxtpx:hr>
23 </gpxtpx:TrackPointExtension>
24 </extensions>
25 </trkpt>
26 <trkpt lon="115.9204319" lat="-31.9317452">
27 <ele>0.62</ele>
28 <time>2008-11-13T08:50:50.000Z</time>
29 <extensions>
30 <gpxtpx:TrackPointExtension>
31 <gpxtpx:hr>95</gpxtpx:hr>
32 </gpxtpx:TrackPointExtension>
33 </extensions>
34 </trkpt>
35 <trkpt lon="115.9205052" lat="-31.931751">
36 <ele>0.62</ele>
37 <time>2008-11-13T08:50:54.000Z</time>
38 <extensions>
39 <gpxtpx:TrackPointExtension>
40 <gpxtpx:hr>104</gpxtpx:hr>
41 </gpxtpx:TrackPointExtension>
42 </extensions>
43 </trkpt>
44 <trkpt lon="115.9205363" lat="-31.9317515">
45 <ele>1.1</ele>
46 <time>2008-11-13T08:50:55.000Z</time>
47 <extensions>
48 <gpxtpx:TrackPointExtension>
49 <gpxtpx:hr>111</gpxtpx:hr>
50 </gpxtpx:TrackPointExtension>
51 </extensions>
52 </trkpt>
53 <trkpt lon="115.9206081" lat="-31.9317516">
54 <ele>1.58</ele>
55 <time>2008-11-13T08:50:57.000Z</time>
56 <extensions>
57 <gpxtpx:TrackPointExtension>
58 <gpxtpx:hr>121</gpxtpx:hr>
59 </gpxtpx:TrackPointExtension>
60 </extensions>
61 </trkpt>
62 <trkpt lon="115.9207688" lat="-31.9317495">
63 <ele>1.58</ele>
64 <time>2008-11-13T08:51:01.000Z</time>
65 <extensions>
66 <gpxtpx:TrackPointExtension>
67 <gpxtpx:hr>126</gpxtpx:hr>
68 </gpxtpx:TrackPointExtension>
69 </extensions>
70 </trkpt>
71 <trkpt lon="115.9208109" lat="-31.9317484">
72 <ele>1.58</ele>
73 <time>2008-11-13T08:51:02.000Z</time>
74 <extensions>
75 <gpxtpx:TrackPointExtension>
76 <gpxtpx:hr>131</gpxtpx:hr>
77 </gpxtpx:TrackPointExtension>
78 </extensions>
79 </trkpt>
80 <trkpt lon="115.9208539" lat="-31.9317465">
81 <ele>1.58</ele>
82 <time>2008-11-13T08:51:03.000Z</time>
83 <extensions>
84 <gpxtpx:TrackPointExtension>
85 <gpxtpx:hr>136</gpxtpx:hr>
86 </gpxtpx:TrackPointExtension>
87 </extensions>
88 </trkpt>
89 <trkpt lon="115.9208967" lat="-31.9317464">
90 <ele>1.58</ele>
91 <time>2008-11-13T08:51:04.000Z</time>
92 <extensions>
93 <gpxtpx:TrackPointExtension>
94 <gpxtpx:hr>136</gpxtpx:hr>
95 </gpxtpx:TrackPointExtension>
96 </extensions>
97 </trkpt>
98 <trkpt lon="115.921198" lat="-31.9317292">
99 <ele>1.58</ele>
100 <time>2008-11-13T08:51:11.000Z</time>
101 <extensions>
102 <gpxtpx:TrackPointExtension>
103 <gpxtpx:hr>143</gpxtpx:hr>
104 </gpxtpx:TrackPointExtension>
105 </extensions>
106 </trkpt>
107 <trkpt lon="115.9212817" lat="-31.9317239">
108 <ele>1.58</ele>
109 <time>2008-11-13T08:51:13.000Z</time>
110 <extensions>
111 <gpxtpx:TrackPointExtension>
112 <gpxtpx:hr>149</gpxtpx:hr>
113 </gpxtpx:TrackPointExtension>
114 </extensions>
115 </trkpt>
116 <trkpt lon="115.9213236" lat="-31.9317214">
117 <ele>1.58</ele>
118 <time>2008-11-13T08:51:14.000Z</time>
119 <extensions>
120 <gpxtpx:TrackPointExtension>
121 <gpxtpx:hr>154</gpxtpx:hr>
122 </gpxtpx:TrackPointExtension>
123 </extensions>
124 </trkpt>
125 <trkpt lon="115.921365" lat="-31.9317182">
126 <ele>1.58</ele>
127 <time>2008-11-13T08:51:15.000Z</time>
128 <extensions>
129 <gpxtpx:TrackPointExtension>
130 <gpxtpx:hr>154</gpxtpx:hr>
131 </gpxtpx:TrackPointExtension>
132 </extensions>
133 </trkpt>
134 <trkpt lon="115.9215276" lat="-31.9317059">
135 <ele>1.58</ele>
136 <time>2008-11-13T08:51:19.000Z</time>
137 <extensions>
138 <gpxtpx:TrackPointExtension>
139 <gpxtpx:hr>159</gpxtpx:hr>
140 </gpxtpx:TrackPointExtension>
141 </extensions>
142 </trkpt>
143 <trkpt lon="115.9216071" lat="-31.9317022">
144 <ele>1.58</ele>
145 <time>2008-11-13T08:51:21.000Z</time>
146 <extensions>
147 <gpxtpx:TrackPointExtension>
148 <gpxtpx:hr>164</gpxtpx:hr>
149 </gpxtpx:TrackPointExtension>
150 </extensions>
151 </trkpt>
152 <trkpt lon="115.921764" lat="-31.9316946">
153 <ele>1.58</ele>
154 <time>2008-11-13T08:51:25.000Z</time>
155 <extensions>
156 <gpxtpx:TrackPointExtension>
157 <gpxtpx:hr>159</gpxtpx:hr>
158 </gpxtpx:TrackPointExtension>
159 </extensions>
160 </trkpt>
161 <trkpt lon="115.92188" lat="-31.9316882">
162 <ele>1.58</ele>
163 <time>2008-11-13T08:51:28.000Z</time>
164 <extensions>
165 <gpxtpx:TrackPointExtension>
166 <gpxtpx:hr>153</gpxtpx:hr>
167 </gpxtpx:TrackPointExtension>
168 </extensions>
169 </trkpt>
170 <trkpt lon="115.9219571" lat="-31.9316846">
171 <ele>1.58</ele>
172 <time>2008-11-13T08:51:30.000Z</time>
173 <extensions>
174 <gpxtpx:TrackPointExtension>
175 <gpxtpx:hr>149</gpxtpx:hr>
176 </gpxtpx:TrackPointExtension>
177 </extensions>
178 </trkpt>
179 <trkpt lon="115.9222655" lat="-31.9316837">
180 <ele>1.1</ele>
181 <time>2008-11-13T08:51:38.000Z</time>
182 <extensions>
183 <gpxtpx:TrackPointExtension>
184 <gpxtpx:hr>149</gpxtpx:hr>
185 </gpxtpx:TrackPointExtension>
186 </extensions>
187 </trkpt>
188 <trkpt lon="115.9224937" lat="-31.9316878">
189 <ele>0.62</ele>
190 <time>2008-11-13T08:51:44.000Z</time>
191 <extensions>
192 <gpxtpx:TrackPointExtension>
193 <gpxtpx:hr>139</gpxtpx:hr>
194 </gpxtpx:TrackPointExtension>
195 </extensions>
196 </trkpt>
197 <trkpt lon="115.9225694" lat="-31.9316913">
198 <ele>0.62</ele>
199 <time>2008-11-13T08:51:46.000Z</time>
200 <extensions>
201 <gpxtpx:TrackPointExtension>
202 <gpxtpx:hr>131</gpxtpx:hr>
203 </gpxtpx:TrackPointExtension>
204 </extensions>
205 </trkpt>
206 <trkpt lon="115.9226066" lat="-31.931692">
207 <ele>0.62</ele>
208 <time>2008-11-13T08:51:47.000Z</time>
209 <extensions>
210 <gpxtpx:TrackPointExtension>
211 <gpxtpx:hr>131</gpxtpx:hr>
212 </gpxtpx:TrackPointExtension>
213 </extensions>
214 </trkpt>
215 <trkpt lon="115.9229475" lat="-31.931699">
216 <ele>-0.34</ele>
217 <time>2008-11-13T08:51:56.000Z</time>
218 <extensions>
219 <gpxtpx:TrackPointExtension>
220 <gpxtpx:hr>131</gpxtpx:hr>
221 </gpxtpx:TrackPointExtension>
222 </extensions>
223 </trkpt>
224 <trkpt lon="115.92332" lat="-31.9316977">
225 <ele>-1.3</ele>
226 <time>2008-11-13T08:52:06.000Z</time>
227 <extensions>
228 <gpxtpx:TrackPointExtension>
229 <gpxtpx:hr>129</gpxtpx:hr>
230 </gpxtpx:TrackPointExtension>
231 </extensions>
232 </trkpt>
233 <trkpt lon="115.9236594" lat="-31.9317032">
234 <ele>-1.79</ele>
235 <time>2008-11-13T08:52:15.000Z</time>
236 <extensions>
237 <gpxtpx:TrackPointExtension>
238 <gpxtpx:hr>131</gpxtpx:hr>
239 </gpxtpx:TrackPointExtension>
240 </extensions>
241 </trkpt>
242 <trkpt lon="115.9237743" lat="-31.9317044">
243 <ele>-2.27</ele>
244 <time>2008-11-13T08:52:18.000Z</time>
245 <extensions>
246 <gpxtpx:TrackPointExtension>
247 <gpxtpx:hr>136</gpxtpx:hr>
248 </gpxtpx:TrackPointExtension>
249 </extensions>
250 </trkpt>
251 <trkpt lon="115.9240794" lat="-31.9317096">
252 <ele>-2.75</ele>
253 <time>2008-11-13T08:52:26.000Z</time>
254 <extensions>
255 <gpxtpx:TrackPointExtension>
256 <gpxtpx:hr>140</gpxtpx:hr>
257 </gpxtpx:TrackPointExtension>
258 </extensions>
259 </trkpt>
260 <trkpt lon="115.9244626" lat="-31.9317102">
261 <ele>-3.23</ele>
262 <time>2008-11-13T08:52:36.000Z</time>
263 <extensions>
264 <gpxtpx:TrackPointExtension>
265 <gpxtpx:hr>143</gpxtpx:hr>
266 </gpxtpx:TrackPointExtension>
267 </extensions>
268 </trkpt>
269 <trkpt lon="115.924812" lat="-31.9317157">
270 <ele>-3.23</ele>
271 <time>2008-11-13T08:52:45.000Z</time>
272 <extensions>
273 <gpxtpx:TrackPointExtension>
274 <gpxtpx:hr>141</gpxtpx:hr>
275 </gpxtpx:TrackPointExtension>
276 </extensions>
277 </trkpt>
278 <trkpt lon="115.9250611" lat="-31.9317194">
279 <ele>-3.71</ele>
280 <time>2008-11-13T08:52:52.000Z</time>
281 <extensions>
282 <gpxtpx:TrackPointExtension>
283 <gpxtpx:hr>141</gpxtpx:hr>
284 </gpxtpx:TrackPointExtension>
285 </extensions>
286 </trkpt>
287 <trkpt lon="115.9252095" lat="-31.9317241">
288 <ele>-3.23</ele>
289 <time>2008-11-13T08:52:59.000Z</time>
290 <extensions>
291 <gpxtpx:TrackPointExtension>
292 <gpxtpx:hr>136</gpxtpx:hr>
293 </gpxtpx:TrackPointExtension>
294 </extensions>
295 </trkpt>
296 <trkpt lon="115.9252729" lat="-31.931732">
297 <ele>-3.23</ele>
298 <time>2008-11-13T08:53:03.000Z</time>
299 <extensions>
300 <gpxtpx:TrackPointExtension>
301 <gpxtpx:hr>130</gpxtpx:hr>
302 </gpxtpx:TrackPointExtension>
303 </extensions>
304 </trkpt>
305 <trkpt lon="115.92535" lat="-31.931738">
306 <ele>-2.75</ele>
307 <time>2008-11-13T08:53:08.000Z</time>
308 <extensions>
309 <gpxtpx:TrackPointExtension>
310 <gpxtpx:hr>124</gpxtpx:hr>
311 </gpxtpx:TrackPointExtension>
312 </extensions>
313 </trkpt>
314 <trkpt lon="115.9254085" lat="-31.931743">
315 <ele>-2.75</ele>
316 <time>2008-11-13T08:53:12.000Z</time>
317 <extensions>
318 <gpxtpx:TrackPointExtension>
319 <gpxtpx:hr>118</gpxtpx:hr>
320 </gpxtpx:TrackPointExtension>
321 </extensions>
322 </trkpt>
323 <trkpt lon="115.9254248" lat="-31.9317437">
324 <ele>-2.75</ele>
325 <time>2008-11-13T08:53:13.000Z</time>
326 <extensions>
327 <gpxtpx:TrackPointExtension>
328 <gpxtpx:hr>113</gpxtpx:hr>
329 </gpxtpx:TrackPointExtension>
330 </extensions>
331 </trkpt>
332 <trkpt lon="115.9255636" lat="-31.9317458">
333 <ele>-2.75</ele>
334 <time>2008-11-13T08:53:21.000Z</time>
335 <extensions>
336 <gpxtpx:TrackPointExtension>
337 <gpxtpx:hr>108</gpxtpx:hr>
338 </gpxtpx:TrackPointExtension>
339 </extensions>
340 </trkpt>
341 <trkpt lon="115.9256532" lat="-31.9317473">
342 <ele>-2.75</ele>
343 <time>2008-11-13T08:53:26.000Z</time>
344 <extensions>
345 <gpxtpx:TrackPointExtension>
346 <gpxtpx:hr>101</gpxtpx:hr>
347 </gpxtpx:TrackPointExtension>
348 </extensions>
349 </trkpt>
350 <trkpt lon="115.9257672" lat="-31.931747">
351 <ele>-3.23</ele>
352 <time>2008-11-13T08:53:32.000Z</time>
353 <extensions>
354 <gpxtpx:TrackPointExtension>
355 <gpxtpx:hr>94</gpxtpx:hr>
356 </gpxtpx:TrackPointExtension>
357 </extensions>
358 </trkpt>
359 <trkpt lon="115.9257864" lat="-31.9317464">
360 <ele>-3.23</ele>
361 <time>2008-11-13T08:53:33.000Z</time>
362 <extensions>
363 <gpxtpx:TrackPointExtension>
364 <gpxtpx:hr>94</gpxtpx:hr>
365 </gpxtpx:TrackPointExtension>
366 </extensions>
367 </trkpt>
368 <trkpt lon="115.9259225" lat="-31.9317384">
369 <ele>-2.75</ele>
370 <time>2008-11-13T08:53:39.000Z</time>
371 <extensions>
372 <gpxtpx:TrackPointExtension>
373 <gpxtpx:hr>100</gpxtpx:hr>
374 </gpxtpx:TrackPointExtension>
375 </extensions>
376 </trkpt>
377 <trkpt lon="115.9259728" lat="-31.9317347">
378 <ele>-2.75</ele>
379 <time>2008-11-13T08:53:41.000Z</time>
380 <extensions>
381 <gpxtpx:TrackPointExtension>
382 <gpxtpx:hr>106</gpxtpx:hr>
383 </gpxtpx:TrackPointExtension>
384 </extensions>
385 </trkpt>
386 <trkpt lon="115.9259991" lat="-31.9317325">
387 <ele>-2.27</ele>
388 <time>2008-11-13T08:53:42.000Z</time>
389 <extensions>
390 <gpxtpx:TrackPointExtension>
391 <gpxtpx:hr>105</gpxtpx:hr>
392 </gpxtpx:TrackPointExtension>
393 </extensions>
394 </trkpt>
395 <trkpt lon="115.9260696" lat="-31.9317256">
396 <ele>-1.79</ele>
397 <time>2008-11-13T08:53:45.000Z</time>
398 <extensions>
399 <gpxtpx:TrackPointExtension>
400 <gpxtpx:hr>100</gpxtpx:hr>
401 </gpxtpx:TrackPointExtension>
402 </extensions>
403 </trkpt>
404 <trkpt lon="115.9262799" lat="-31.9317034">
405 <ele>-2.27</ele>
406 <time>2008-11-13T08:53:54.000Z</time>
407 <extensions>
408 <gpxtpx:TrackPointExtension>
409 <gpxtpx:hr>100</gpxtpx:hr>
410 </gpxtpx:TrackPointExtension>
411 </extensions>
412 </trkpt>
413 <trkpt lon="115.9263857" lat="-31.9316945">
414 <ele>-1.79</ele>
415 <time>2008-11-13T08:53:57.000Z</time>
416 <extensions>
417 <gpxtpx:TrackPointExtension>
418 <gpxtpx:hr>106</gpxtpx:hr>
419 </gpxtpx:TrackPointExtension>
420 </extensions>
421 </trkpt>
422 <trkpt lon="115.9264223" lat="-31.9316909">
423 <ele>-1.79</ele>
424 <time>2008-11-13T08:53:58.000Z</time>
425 <extensions>
426 <gpxtpx:TrackPointExtension>
427 <gpxtpx:hr>111</gpxtpx:hr>
428 </gpxtpx:TrackPointExtension>
429 </extensions>
430 </trkpt>
431 <trkpt lon="115.9264605" lat="-31.9316871">
432 <ele>-1.79</ele>
433 <time>2008-11-13T08:53:59.000Z</time>
434 <extensions>
435 <gpxtpx:TrackPointExtension>
436 <gpxtpx:hr>111</gpxtpx:hr>
437 </gpxtpx:TrackPointExtension>
438 </extensions>
439 </trkpt>
440 <trkpt lon="115.9265798" lat="-31.9316728">
441 <ele>-1.3</ele>
442 <time>2008-11-13T08:54:02.000Z</time>
443 <extensions>
444 <gpxtpx:TrackPointExtension>
445 <gpxtpx:hr>118</gpxtpx:hr>
446 </gpxtpx:TrackPointExtension>
447 </extensions>
448 </trkpt>
449 <trkpt lon="115.9266182" lat="-31.9316671">
450 <ele>-1.3</ele>
451 <time>2008-11-13T08:54:03.000Z</time>
452 <extensions>
453 <gpxtpx:TrackPointExtension>
454 <gpxtpx:hr>123</gpxtpx:hr>
455 </gpxtpx:TrackPointExtension>
456 </extensions>
457 </trkpt>
458 <trkpt lon="115.9266571" lat="-31.9316618">
459 <ele>-1.3</ele>
460 <time>2008-11-13T08:54:04.000Z</time>
461 <extensions>
462 <gpxtpx:TrackPointExtension>
463 <gpxtpx:hr>123</gpxtpx:hr>
464 </gpxtpx:TrackPointExtension>
465 </extensions>
466 </trkpt>
467 <trkpt lon="115.926813" lat="-31.9316427">
468 <ele>-0.82</ele>
469 <time>2008-11-13T08:54:08.000Z</time>
470 <extensions>
471 <gpxtpx:TrackPointExtension>
472 <gpxtpx:hr>128</gpxtpx:hr>
473 </gpxtpx:TrackPointExtension>
474 </extensions>
475 </trkpt>
476 <trkpt lon="115.9268947" lat="-31.931633">
477 <ele>-0.82</ele>
478 <time>2008-11-13T08:54:10.000Z</time>
479 <extensions>
480 <gpxtpx:TrackPointExtension>
481 <gpxtpx:hr>132</gpxtpx:hr>
482 </gpxtpx:TrackPointExtension>
483 </extensions>
484 </trkpt>
485 <trkpt lon="115.9273387" lat="-31.9315776">
486 <ele>0.14</ele>
487 <time>2008-11-13T08:54:21.000Z</time>
488 <extensions>
489 <gpxtpx:TrackPointExtension>
490 <gpxtpx:hr>132</gpxtpx:hr>
491 </gpxtpx:TrackPointExtension>
492 </extensions>
493 </trkpt>
494 <trkpt lon="115.9275792" lat="-31.9315455">
495 <ele>0.62</ele>
496 <time>2008-11-13T08:54:27.000Z</time>
497 <extensions>
498 <gpxtpx:TrackPointExtension>
499 <gpxtpx:hr>137</gpxtpx:hr>
500 </gpxtpx:TrackPointExtension>
501 </extensions>
502 </trkpt>
503 <trkpt lon="115.9280156" lat="-31.9314985">
504 <ele>1.1</ele>
505 <time>2008-11-13T08:54:38.000Z</time>
506 <extensions>
507 <gpxtpx:TrackPointExtension>
508 <gpxtpx:hr>138</gpxtpx:hr>
509 </gpxtpx:TrackPointExtension>
510 </extensions>
511 </trkpt>
512 <trkpt lon="115.9284126" lat="-31.931461">
513 <ele>2.06</ele>
514 <time>2008-11-13T08:54:48.000Z</time>
515 <extensions>
516 <gpxtpx:TrackPointExtension>
517 <gpxtpx:hr>141</gpxtpx:hr>
518 </gpxtpx:TrackPointExtension>
519 </extensions>
520 </trkpt>
521 <trkpt lon="115.9285321" lat="-31.931448">
522 <ele>2.54</ele>
523 <time>2008-11-13T08:54:51.000Z</time>
524 <extensions>
525 <gpxtpx:TrackPointExtension>
526 <gpxtpx:hr>146</gpxtpx:hr>
527 </gpxtpx:TrackPointExtension>
528 </extensions>
529 </trkpt>
530 <trkpt lon="115.9290071" lat="-31.9313963">
531 <ele>3.02</ele>
532 <time>2008-11-13T08:55:03.000Z</time>
533 <extensions>
534 <gpxtpx:TrackPointExtension>
535 <gpxtpx:hr>144</gpxtpx:hr>
536 </gpxtpx:TrackPointExtension>
537 </extensions>
538 </trkpt>
539 <trkpt lon="115.9294035" lat="-31.9313465">
540 <ele>3.5</ele>
541 <time>2008-11-13T08:55:13.000Z</time>
542 <extensions>
543 <gpxtpx:TrackPointExtension>
544 <gpxtpx:hr>145</gpxtpx:hr>
545 </gpxtpx:TrackPointExtension>
546 </extensions>
547 </trkpt>
548 <trkpt lon="115.9297986" lat="-31.9312946">
549 <ele>3.5</ele>
550 <time>2008-11-13T08:55:23.000Z</time>
551 <extensions>
552 <gpxtpx:TrackPointExtension>
553 <gpxtpx:hr>145</gpxtpx:hr>
554 </gpxtpx:TrackPointExtension>
555 </extensions>
556 </trkpt>
557 <trkpt lon="115.9301954" lat="-31.9312492">
558 <ele>2.54</ele>
559 <time>2008-11-13T08:55:33.000Z</time>
560 <extensions>
561 <gpxtpx:TrackPointExtension>
562 <gpxtpx:hr>146</gpxtpx:hr>
563 </gpxtpx:TrackPointExtension>
564 </extensions>
565 </trkpt>
566 <trkpt lon="115.9306244" lat="-31.9312026">
567 <ele>2.06</ele>
568 <time>2008-11-13T08:55:44.000Z</time>
569 <extensions>
570 <gpxtpx:TrackPointExtension>
571 <gpxtpx:hr>146</gpxtpx:hr>
572 </gpxtpx:TrackPointExtension>
573 </extensions>
574 </trkpt>
575 <trkpt lon="115.9310181" lat="-31.9311594">
576 <ele>2.06</ele>
577 <time>2008-11-13T08:55:54.000Z</time>
578 <extensions>
579 <gpxtpx:TrackPointExtension>
580 <gpxtpx:hr>146</gpxtpx:hr>
581 </gpxtpx:TrackPointExtension>
582 </extensions>
583 </trkpt>
584 <trkpt lon="115.9314067" lat="-31.9311261">
585 <ele>1.58</ele>
586 <time>2008-11-13T08:56:04.000Z</time>
587 <extensions>
588 <gpxtpx:TrackPointExtension>
589 <gpxtpx:hr>147</gpxtpx:hr>
590 </gpxtpx:TrackPointExtension>
591 </extensions>
592 </trkpt>
593 <trkpt lon="115.9318365" lat="-31.931096">
594 <ele>1.58</ele>
595 <time>2008-11-13T08:56:15.000Z</time>
596 <extensions>
597 <gpxtpx:TrackPointExtension>
598 <gpxtpx:hr>149</gpxtpx:hr>
599 </gpxtpx:TrackPointExtension>
600 </extensions>
601 </trkpt>
602 <trkpt lon="115.9322629" lat="-31.9310551">
603 <ele>1.1</ele>
604 <time>2008-11-13T08:56:26.000Z</time>
605 <extensions>
606 <gpxtpx:TrackPointExtension>
607 <gpxtpx:hr>148</gpxtpx:hr>
608 </gpxtpx:TrackPointExtension>
609 </extensions>
610 </trkpt>
611 <trkpt lon="115.9326863" lat="-31.931005">
612 <ele>0.14</ele>
613 <time>2008-11-13T08:56:37.000Z</time>
614 <extensions>
615 <gpxtpx:TrackPointExtension>
616 <gpxtpx:hr>147</gpxtpx:hr>
617 </gpxtpx:TrackPointExtension>
618 </extensions>
619 </trkpt>
620 <trkpt lon="115.9331477" lat="-31.93095">
621 <ele>0.62</ele>
622 <time>2008-11-13T08:56:49.000Z</time>
623 <extensions>
624 <gpxtpx:TrackPointExtension>
625 <gpxtpx:hr>146</gpxtpx:hr>
626 </gpxtpx:TrackPointExtension>
627 </extensions>
628 </trkpt>
629 <trkpt lon="115.9334472" lat="-31.930917">
630 <ele>-0.34</ele>
631 <time>2008-11-13T08:56:57.000Z</time>
632 <extensions>
633 <gpxtpx:TrackPointExtension>
634 <gpxtpx:hr>145</gpxtpx:hr>
635 </gpxtpx:TrackPointExtension>
636 </extensions>
637 </trkpt>
638 <trkpt lon="115.9337041" lat="-31.9308928">
639 <ele>-0.82</ele>
640 <time>2008-11-13T08:57:04.000Z</time>
641 <extensions>
642 <gpxtpx:TrackPointExtension>
643 <gpxtpx:hr>157</gpxtpx:hr>
644 </gpxtpx:TrackPointExtension>
645 </extensions>
646 </trkpt>
647 <trkpt lon="115.9337415" lat="-31.9308889">
648 <ele>-0.82</ele>
649 <time>2008-11-13T08:57:05.000Z</time>
650 <extensions>
651 <gpxtpx:TrackPointExtension>
652 <gpxtpx:hr>164</gpxtpx:hr>
653 </gpxtpx:TrackPointExtension>
654 </extensions>
655 </trkpt>
656 <trkpt lon="115.9337792" lat="-31.9308844">
657 <ele>-0.82</ele>
658 <time>2008-11-13T08:57:06.000Z</time>
659 <extensions>
660 <gpxtpx:TrackPointExtension>
661 <gpxtpx:hr>164</gpxtpx:hr>
662 </gpxtpx:TrackPointExtension>
663 </extensions>
664 </trkpt>
665 <trkpt lon="115.9340405" lat="-31.9308471">
666 <ele>-1.3</ele>
667 <time>2008-11-13T08:57:13.000Z</time>
668 <extensions>
669 <gpxtpx:TrackPointExtension>
670 <gpxtpx:hr>159</gpxtpx:hr>
671 </gpxtpx:TrackPointExtension>
672 </extensions>
673 </trkpt>
674 <trkpt lon="115.9341889" lat="-31.9308248">
675 <ele>-1.3</ele>
676 <time>2008-11-13T08:57:17.000Z</time>
677 <extensions>
678 <gpxtpx:TrackPointExtension>
679 <gpxtpx:hr>152</gpxtpx:hr>
680 </gpxtpx:TrackPointExtension>
681 </extensions>
682 </trkpt>
683 <trkpt lon="115.9342265" lat="-31.9308195">
684 <ele>-1.3</ele>
685 <time>2008-11-13T08:57:18.000Z</time>
686 <extensions>
687 <gpxtpx:TrackPointExtension>
688 <gpxtpx:hr>152</gpxtpx:hr>
689 </gpxtpx:TrackPointExtension>
690 </extensions>
691 </trkpt>
692 <trkpt lon="115.9345277" lat="-31.9307735">
693 <ele>-1.3</ele>
694 <time>2008-11-13T08:57:26.000Z</time>
695 <extensions>
696 <gpxtpx:TrackPointExtension>
697 <gpxtpx:hr>153</gpxtpx:hr>
698 </gpxtpx:TrackPointExtension>
699 </extensions>
700 </trkpt>
701 <trkpt lon="115.934752" lat="-31.930729">
702 <ele>-0.82</ele>
703 <time>2008-11-13T08:57:32.000Z</time>
704 <extensions>
705 <gpxtpx:TrackPointExtension>
706 <gpxtpx:hr>156</gpxtpx:hr>
707 </gpxtpx:TrackPointExtension>
708 </extensions>
709 </trkpt>
710 <trkpt lon="115.9349706" lat="-31.9306777">
711 <ele>-0.34</ele>
712 <time>2008-11-13T08:57:38.000Z</time>
713 <extensions>
714 <gpxtpx:TrackPointExtension>
715 <gpxtpx:hr>151</gpxtpx:hr>
716 </gpxtpx:TrackPointExtension>
717 </extensions>
718 </trkpt>
719 <trkpt lon="115.9352244" lat="-31.9306072">
720 <ele>0.14</ele>
721 <time>2008-11-13T08:57:45.000Z</time>
722 <extensions>
723 <gpxtpx:TrackPointExtension>
724 <gpxtpx:hr>157</gpxtpx:hr>
725 </gpxtpx:TrackPointExtension>
726 </extensions>
727 </trkpt>
728 <trkpt lon="115.935261" lat="-31.9305969">
729 <ele>0.14</ele>
730 <time>2008-11-13T08:57:46.000Z</time>
731 <extensions>
732 <gpxtpx:TrackPointExtension>
733 <gpxtpx:hr>157</gpxtpx:hr>
734 </gpxtpx:TrackPointExtension>
735 </extensions>
736 </trkpt>
737 <trkpt lon="115.9354746" lat="-31.9305347">
738 <ele>0.14</ele>
739 <time>2008-11-13T08:57:52.000Z</time>
740 <extensions>
741 <gpxtpx:TrackPointExtension>
742 <gpxtpx:hr>152</gpxtpx:hr>
743 </gpxtpx:TrackPointExtension>
744 </extensions>
745 </trkpt>
746 <trkpt lon="115.9355767" lat="-31.9305024">
747 <ele>0.14</ele>
748 <time>2008-11-13T08:57:56.000Z</time>
749 <extensions>
750 <gpxtpx:TrackPointExtension>
751 <gpxtpx:hr>146</gpxtpx:hr>
752 </gpxtpx:TrackPointExtension>
753 </extensions>
754 </trkpt>
755 <trkpt lon="115.9356637" lat="-31.9304794">
756 <ele>1.1</ele>
757 <time>2008-11-13T08:58:01.000Z</time>
758 <extensions>
759 <gpxtpx:TrackPointExtension>
760 <gpxtpx:hr>141</gpxtpx:hr>
761 </gpxtpx:TrackPointExtension>
762 </extensions>
763 </trkpt>
764 <trkpt lon="115.9357124" lat="-31.9304659">
765 <ele>1.1</ele>
766 <time>2008-11-13T08:58:05.000Z</time>
767 <extensions>
768 <gpxtpx:TrackPointExtension>
769 <gpxtpx:hr>136</gpxtpx:hr>
770 </gpxtpx:TrackPointExtension>
771 </extensions>
772 </trkpt>
773 <trkpt lon="115.9357554" lat="-31.9304507">
774 <ele>1.58</ele>
775 <time>2008-11-13T08:58:10.000Z</time>
776 <extensions>
777 <gpxtpx:TrackPointExtension>
778 <gpxtpx:hr>131</gpxtpx:hr>
779 </gpxtpx:TrackPointExtension>
780 </extensions>
781 </trkpt>
782 <trkpt lon="115.9357837" lat="-31.9304385">
783 <ele>2.06</ele>
784 <time>2008-11-13T08:58:13.000Z</time>
785 <extensions>
786 <gpxtpx:TrackPointExtension>
787 <gpxtpx:hr>126</gpxtpx:hr>
788 </gpxtpx:TrackPointExtension>
789 </extensions>
790 </trkpt>
791 <trkpt lon="115.9358003" lat="-31.9304323">
792 <ele>2.06</ele>
793 <time>2008-11-13T08:58:15.000Z</time>
794 <extensions>
795 <gpxtpx:TrackPointExtension>
796 <gpxtpx:hr>120</gpxtpx:hr>
797 </gpxtpx:TrackPointExtension>
798 </extensions>
799 </trkpt>
800 <trkpt lon="115.9358378" lat="-31.9304187">
801 <ele>1.58</ele>
802 <time>2008-11-13T08:58:21.000Z</time>
803 <extensions>
804 <gpxtpx:TrackPointExtension>
805 <gpxtpx:hr>114</gpxtpx:hr>
806 </gpxtpx:TrackPointExtension>
807 </extensions>
808 </trkpt>
809 <trkpt lon="115.9358631" lat="-31.9304086">
810 <ele>1.58</ele>
811 <time>2008-11-13T08:58:25.000Z</time>
812 <extensions>
813 <gpxtpx:TrackPointExtension>
814 <gpxtpx:hr>107</gpxtpx:hr>
815 </gpxtpx:TrackPointExtension>
816 </extensions>
817 </trkpt>
818 <trkpt lon="115.9358755" lat="-31.9304045">
819 <ele>1.1</ele>
820 <time>2008-11-13T08:58:28.000Z</time>
821 <extensions>
822 <gpxtpx:TrackPointExtension>
823 <gpxtpx:hr>101</gpxtpx:hr>
824 </gpxtpx:TrackPointExtension>
825 </extensions>
826 </trkpt>
827 <trkpt lon="115.9359624" lat="-31.9303731">
828 <ele>0.62</ele>
829 <time>2008-11-13T08:58:37.000Z</time>
830 <extensions>
831 <gpxtpx:TrackPointExtension>
832 <gpxtpx:hr>99</gpxtpx:hr>
833 </gpxtpx:TrackPointExtension>
834 </extensions>
835 </trkpt>
836 <trkpt lon="115.9360763" lat="-31.9303348">
837 <ele>0.14</ele>
838 <time>2008-11-13T08:58:44.000Z</time>
839 <extensions>
840 <gpxtpx:TrackPointExtension>
841 <gpxtpx:hr>93</gpxtpx:hr>
842 </gpxtpx:TrackPointExtension>
843 </extensions>
844 </trkpt>
845 <trkpt lon="115.9362542" lat="-31.9302685">
846 <ele>0.62</ele>
847 <time>2008-11-13T08:58:53.000Z</time>
848 <extensions>
849 <gpxtpx:TrackPointExtension>
850 <gpxtpx:hr>93</gpxtpx:hr>
851 </gpxtpx:TrackPointExtension>
852 </extensions>
853 </trkpt>
854 <trkpt lon="115.936405" lat="-31.9301985">
855 <ele>1.1</ele>
856 <time>2008-11-13T08:58:59.000Z</time>
857 <extensions>
858 <gpxtpx:TrackPointExtension>
859 <gpxtpx:hr>97</gpxtpx:hr>
860 </gpxtpx:TrackPointExtension>
861 </extensions>
862 </trkpt>
863 <trkpt lon="115.936496" lat="-31.930152">
864 <ele>1.1</ele>
865 <time>2008-11-13T08:59:02.000Z</time>
866 <extensions>
867 <gpxtpx:TrackPointExtension>
868 <gpxtpx:hr>104</gpxtpx:hr>
869 </gpxtpx:TrackPointExtension>
870 </extensions>
871 </trkpt>
872 <trkpt lon="115.9365265" lat="-31.9301373">
873 <ele>1.1</ele>
874 <time>2008-11-13T08:59:03.000Z</time>
875 <extensions>
876 <gpxtpx:TrackPointExtension>
877 <gpxtpx:hr>104</gpxtpx:hr>
878 </gpxtpx:TrackPointExtension>
879 </extensions>
880 </trkpt>
881 <trkpt lon="115.9367535" lat="-31.930022">
882 <ele>0.14</ele>
883 <time>2008-11-13T08:59:10.000Z</time>
884 <extensions>
885 <gpxtpx:TrackPointExtension>
886 <gpxtpx:hr>106</gpxtpx:hr>
887 </gpxtpx:TrackPointExtension>
888 </extensions>
889 </trkpt>
890 <trkpt lon="115.9368756" lat="-31.929942">
891 <ele>-1.3</ele>
892 <time>2008-11-13T08:59:14.000Z</time>
893 <extensions>
894 <gpxtpx:TrackPointExtension>
895 <gpxtpx:hr>112</gpxtpx:hr>
896 </gpxtpx:TrackPointExtension>
897 </extensions>
898 </trkpt>
899 <trkpt lon="115.9370365" lat="-31.9298445">
900 <ele>-7.55</ele>
901 <time>2008-11-13T08:59:19.000Z</time>
902 <extensions>
903 <gpxtpx:TrackPointExtension>
904 <gpxtpx:hr>117</gpxtpx:hr>
905 </gpxtpx:TrackPointExtension>
906 </extensions>
907 </trkpt>
908 <trkpt lon="115.9370844" lat="-31.9297953">
909 <ele>-5.15</ele>
910 <time>2008-11-13T08:59:21.000Z</time>
911 <extensions>
912 <gpxtpx:TrackPointExtension>
913 <gpxtpx:hr>121</gpxtpx:hr>
914 </gpxtpx:TrackPointExtension>
915 </extensions>
916 </trkpt>
917 <trkpt lon="115.9373064" lat="-31.9296149">
918 <ele>-3.23</ele>
919 <time>2008-11-13T08:59:28.000Z</time>
920 <extensions>
921 <gpxtpx:TrackPointExtension>
922 <gpxtpx:hr>121</gpxtpx:hr>
923 </gpxtpx:TrackPointExtension>
924 </extensions>
925 </trkpt>
926 <trkpt lon="115.937526" lat="-31.9294011">
927 <ele>-2.27</ele>
928 <time>2008-11-13T08:59:36.000Z</time>
929 <extensions>
930 <gpxtpx:TrackPointExtension>
931 <gpxtpx:hr>124</gpxtpx:hr>
932 </gpxtpx:TrackPointExtension>
933 </extensions>
934 </trkpt>
935 <trkpt lon="115.9376032" lat="-31.9293178">
936 <ele>-2.27</ele>
937 <time>2008-11-13T08:59:39.000Z</time>
938 <extensions>
939 <gpxtpx:TrackPointExtension>
940 <gpxtpx:hr>129</gpxtpx:hr>
941 </gpxtpx:TrackPointExtension>
942 </extensions>
943 </trkpt>
944 <trkpt lon="115.9376518" lat="-31.9292616">
945 <ele>-1.79</ele>
946 <time>2008-11-13T08:59:41.000Z</time>
947 <extensions>
948 <gpxtpx:TrackPointExtension>
949 <gpxtpx:hr>134</gpxtpx:hr>
950 </gpxtpx:TrackPointExtension>
951 </extensions>
952 </trkpt>
953 <trkpt lon="115.937675" lat="-31.9292334">
954 <ele>-1.79</ele>
955 <time>2008-11-13T08:59:42.000Z</time>
956 <extensions>
957 <gpxtpx:TrackPointExtension>
958 <gpxtpx:hr>134</gpxtpx:hr>
959 </gpxtpx:TrackPointExtension>
960 </extensions>
961 </trkpt>
962 <trkpt lon="115.9378078" lat="-31.9290604">
963 <ele>-0.34</ele>
964 <time>2008-11-13T08:59:48.000Z</time>
965 <extensions>
966 <gpxtpx:TrackPointExtension>
967 <gpxtpx:hr>139</gpxtpx:hr>
968 </gpxtpx:TrackPointExtension>
969 </extensions>
970 </trkpt>
971 <trkpt lon="115.9380149" lat="-31.9287585">
972 <ele>2.06</ele>
973 <time>2008-11-13T08:59:58.000Z</time>
974 <extensions>
975 <gpxtpx:TrackPointExtension>
976 <gpxtpx:hr>140</gpxtpx:hr>
977 </gpxtpx:TrackPointExtension>
978 </extensions>
979 </trkpt>
980 <trkpt lon="115.9380331" lat="-31.9287282">
981 <ele>2.06</ele>
982 <time>2008-11-13T08:59:59.000Z</time>
983 <extensions>
984 <gpxtpx:TrackPointExtension>
985 <gpxtpx:hr>145</gpxtpx:hr>
986 </gpxtpx:TrackPointExtension>
987 </extensions>
988 </trkpt>
989 <trkpt lon="115.9380501" lat="-31.9286982">
990 <ele>2.06</ele>
991 <time>2008-11-13T09:00:00.000Z</time>
992 <extensions>
993 <gpxtpx:TrackPointExtension>
994 <gpxtpx:hr>153</gpxtpx:hr>
995 </gpxtpx:TrackPointExtension>
996 </extensions>
997 </trkpt>
998 <trkpt lon="115.9380666" lat="-31.9286659">
999 <ele>2.06</ele>
1000 <time>2008-11-13T09:00:01.000Z</time>
1001 <extensions>
1002 <gpxtpx:TrackPointExtension>
1003 <gpxtpx:hr>158</gpxtpx:hr>
1004 </gpxtpx:TrackPointExtension>
1005 </extensions>
1006 </trkpt>
1007 <trkpt lon="115.9380818" lat="-31.928635">
1008 <ele>2.06</ele>
1009 <time>2008-11-13T09:00:02.000Z</time>
1010 <extensions>
1011 <gpxtpx:TrackPointExtension>
1012 <gpxtpx:hr>169</gpxtpx:hr>
1013 </gpxtpx:TrackPointExtension>
1014 </extensions>
1015 </trkpt>
1016 <trkpt lon="115.9380963" lat="-31.9286034">
1017 <ele>2.54</ele>
1018 <time>2008-11-13T09:00:03.000Z</time>
1019 <extensions>
1020 <gpxtpx:TrackPointExtension>
1021 <gpxtpx:hr>169</gpxtpx:hr>
1022 </gpxtpx:TrackPointExtension>
1023 </extensions>
1024 </trkpt>
1025 <trkpt lon="115.9381672" lat="-31.92845">
1026 <ele>3.5</ele>
1027 <time>2008-11-13T09:00:08.000Z</time>
1028 <extensions>
1029 <gpxtpx:TrackPointExtension>
1030 <gpxtpx:hr>164</gpxtpx:hr>
1031 </gpxtpx:TrackPointExtension>
1032 </extensions>
1033 </trkpt>
1034 <trkpt lon="115.9382961" lat="-31.9280964">
1035 <ele>5.42</ele>
1036 <time>2008-11-13T09:00:19.000Z</time>
1037 <extensions>
1038 <gpxtpx:TrackPointExtension>
1039 <gpxtpx:hr>159</gpxtpx:hr>
1040 </gpxtpx:TrackPointExtension>
1041 </extensions>
1042 </trkpt>
1043 <trkpt lon="115.9383975" lat="-31.9277722">
1044 <ele>6.87</ele>
1045 <time>2008-11-13T09:00:29.000Z</time>
1046 <extensions>
1047 <gpxtpx:TrackPointExtension>
1048 <gpxtpx:hr>156</gpxtpx:hr>
1049 </gpxtpx:TrackPointExtension>
1050 </extensions>
1051 </trkpt>
1052 <trkpt lon="115.9384273" lat="-31.9276732">
1053 <ele>6.87</ele>
1054 <time>2008-11-13T09:00:32.000Z</time>
1055 <extensions>
1056 <gpxtpx:TrackPointExtension>
1057 <gpxtpx:hr>162</gpxtpx:hr>
1058 </gpxtpx:TrackPointExtension>
1059 </extensions>
1060 </trkpt>
1061 <trkpt lon="115.9385168" lat="-31.9273452">
1062 <ele>6.87</ele>
1063 <time>2008-11-13T09:00:42.000Z</time>
1064 <extensions>
1065 <gpxtpx:TrackPointExtension>
1066 <gpxtpx:hr>160</gpxtpx:hr>
1067 </gpxtpx:TrackPointExtension>
1068 </extensions>
1069 </trkpt>
1070 <trkpt lon="115.9385526" lat="-31.9272132">
1071 <ele>7.35</ele>
1072 <time>2008-11-13T09:00:46.000Z</time>
1073 <extensions>
1074 <gpxtpx:TrackPointExtension>
1075 <gpxtpx:hr>167</gpxtpx:hr>
1076 </gpxtpx:TrackPointExtension>
1077 </extensions>
1078 </trkpt>
1079 <trkpt lon="115.9385614" lat="-31.9271805">
1080 <ele>7.35</ele>
1081 <time>2008-11-13T09:00:47.000Z</time>
1082 <extensions>
1083 <gpxtpx:TrackPointExtension>
1084 <gpxtpx:hr>167</gpxtpx:hr>
1085 </gpxtpx:TrackPointExtension>
1086 </extensions>
1087 </trkpt>
1088 <trkpt lon="115.9386791" lat="-31.926743">
1089 <ele>7.83</ele>
1090 <time>2008-11-13T09:01:00.000Z</time>
1091 <extensions>
1092 <gpxtpx:TrackPointExtension>
1093 <gpxtpx:hr>162</gpxtpx:hr>
1094 </gpxtpx:TrackPointExtension>
1095 </extensions>
1096 </trkpt>
1097 <trkpt lon="115.938698" lat="-31.9266744">
1098 <ele>7.83</ele>
1099 <time>2008-11-13T09:01:02.000Z</time>
1100 <extensions>
1101 <gpxtpx:TrackPointExtension>
1102 <gpxtpx:hr>156</gpxtpx:hr>
1103 </gpxtpx:TrackPointExtension>
1104 </extensions>
1105 </trkpt>
1106 <trkpt lon="115.9387924" lat="-31.926301">
1107 <ele>9.27</ele>
1108 <time>2008-11-13T09:01:13.000Z</time>
1109 <extensions>
1110 <gpxtpx:TrackPointExtension>
1111 <gpxtpx:hr>154</gpxtpx:hr>
1112 </gpxtpx:TrackPointExtension>
1113 </extensions>
1114 </trkpt>
1115 <trkpt lon="115.9388945" lat="-31.9258916">
1116 <ele>8.79</ele>
1117 <time>2008-11-13T09:01:25.000Z</time>
1118 <extensions>
1119 <gpxtpx:TrackPointExtension>
1120 <gpxtpx:hr>158</gpxtpx:hr>
1121 </gpxtpx:TrackPointExtension>
1122 </extensions>
1123 </trkpt>
1124 <trkpt lon="115.9389451" lat="-31.9256898">
1125 <ele>8.79</ele>
1126 <time>2008-11-13T09:01:31.000Z</time>
1127 <extensions>
1128 <gpxtpx:TrackPointExtension>
1129 <gpxtpx:hr>152</gpxtpx:hr>
1130 </gpxtpx:TrackPointExtension>
1131 </extensions>
1132 </trkpt>
1133 <trkpt lon="115.9390308" lat="-31.9253178">
1134 <ele>8.79</ele>
1135 <time>2008-11-13T09:01:42.000Z</time>
1136 <extensions>
1137 <gpxtpx:TrackPointExtension>
1138 <gpxtpx:hr>148</gpxtpx:hr>
1139 </gpxtpx:TrackPointExtension>
1140 </extensions>
1141 </trkpt>
1142 <trkpt lon="115.9391396" lat="-31.9249496">
1143 <ele>8.79</ele>
1144 <time>2008-11-13T09:01:53.000Z</time>
1145 <extensions>
1146 <gpxtpx:TrackPointExtension>
1147 <gpxtpx:hr>147</gpxtpx:hr>
1148 </gpxtpx:TrackPointExtension>
1149 </extensions>
1150 </trkpt>
1151 <trkpt lon="115.9392289" lat="-31.9246869">
1152 <ele>10.23</ele>
1153 <time>2008-11-13T09:02:01.000Z</time>
1154 <extensions>
1155 <gpxtpx:TrackPointExtension>
1156 <gpxtpx:hr>147</gpxtpx:hr>
1157 </gpxtpx:TrackPointExtension>
1158 </extensions>
1159 </trkpt>
1160 <trkpt lon="115.9393528" lat="-31.9242875">
1161 <ele>11.67</ele>
1162 <time>2008-11-13T09:02:13.000Z</time>
1163 <extensions>
1164 <gpxtpx:TrackPointExtension>
1165 <gpxtpx:hr>148</gpxtpx:hr>
1166 </gpxtpx:TrackPointExtension>
1167 </extensions>
1168 </trkpt>
1169 <trkpt lon="115.9394611" lat="-31.9239546">
1170 <ele>12.15</ele>
1171 <time>2008-11-13T09:02:23.000Z</time>
1172 <extensions>
1173 <gpxtpx:TrackPointExtension>
1174 <gpxtpx:hr>148</gpxtpx:hr>
1175 </gpxtpx:TrackPointExtension>
1176 </extensions>
1177 </trkpt>
1178 <trkpt lon="115.9395846" lat="-31.9236307">
1179 <ele>14.08</ele>
1180 <time>2008-11-13T09:02:33.000Z</time>
1181 <extensions>
1182 <gpxtpx:TrackPointExtension>
1183 <gpxtpx:hr>148</gpxtpx:hr>
1184 </gpxtpx:TrackPointExtension>
1185 </extensions>
1186 </trkpt>
1187 <trkpt lon="115.9397404" lat="-31.9233556">
1188 <ele>15.04</ele>
1189 <time>2008-11-13T09:02:42.000Z</time>
1190 <extensions>
1191 <gpxtpx:TrackPointExtension>
1192 <gpxtpx:hr>147</gpxtpx:hr>
1193 </gpxtpx:TrackPointExtension>
1194 </extensions>
1195 </trkpt>
1196 <trkpt lon="115.9399534" lat="-31.9230676">
1197 <ele>14.56</ele>
1198 <time>2008-11-13T09:02:52.000Z</time>
1199 <extensions>
1200 <gpxtpx:TrackPointExtension>
1201 <gpxtpx:hr>146</gpxtpx:hr>
1202 </gpxtpx:TrackPointExtension>
1203 </extensions>
1204 </trkpt>
1205 <trkpt lon="115.9401833" lat="-31.922792">
1206 <ele>14.56</ele>
1207 <time>2008-11-13T09:03:02.000Z</time>
1208 <extensions>
1209 <gpxtpx:TrackPointExtension>
1210 <gpxtpx:hr>147</gpxtpx:hr>
1211 </gpxtpx:TrackPointExtension>
1212 </extensions>
1213 </trkpt>
1214 <trkpt lon="115.9404014" lat="-31.9225584">
1215 <ele>14.08</ele>
1216 <time>2008-11-13T09:03:11.000Z</time>
1217 <extensions>
1218 <gpxtpx:TrackPointExtension>
1219 <gpxtpx:hr>146</gpxtpx:hr>
1220 </gpxtpx:TrackPointExtension>
1221 </extensions>
1222 </trkpt>
1223 <trkpt lon="115.9406287" lat="-31.9223285">
1224 <ele>13.12</ele>
1225 <time>2008-11-13T09:03:20.000Z</time>
1226 <extensions>
1227 <gpxtpx:TrackPointExtension>
1228 <gpxtpx:hr>145</gpxtpx:hr>
1229 </gpxtpx:TrackPointExtension>
1230 </extensions>
1231 </trkpt>
1232 <trkpt lon="115.9408706" lat="-31.9220741">
1233 <ele>12.15</ele>
1234 <time>2008-11-13T09:03:30.000Z</time>
1235 <extensions>
1236 <gpxtpx:TrackPointExtension>
1237 <gpxtpx:hr>146</gpxtpx:hr>
1238 </gpxtpx:TrackPointExtension>
1239 </extensions>
1240 </trkpt>
1241 <trkpt lon="115.9411038" lat="-31.9218539">
1242 <ele>12.63</ele>
1243 <time>2008-11-13T09:03:39.000Z</time>
1244 <extensions>
1245 <gpxtpx:TrackPointExtension>
1246 <gpxtpx:hr>147</gpxtpx:hr>
1247 </gpxtpx:TrackPointExtension>
1248 </extensions>
1249 </trkpt>
1250 <trkpt lon="115.9413702" lat="-31.9216466">
1251 <ele>12.15</ele>
1252 <time>2008-11-13T09:03:48.000Z</time>
1253 <extensions>
1254 <gpxtpx:TrackPointExtension>
1255 <gpxtpx:hr>147</gpxtpx:hr>
1256 </gpxtpx:TrackPointExtension>
1257 </extensions>
1258 </trkpt>
1259 <trkpt lon="115.941583" lat="-31.9215048">
1260 <ele>11.19</ele>
1261 <time>2008-11-13T09:03:55.000Z</time>
1262 <extensions>
1263 <gpxtpx:TrackPointExtension>
1264 <gpxtpx:hr>148</gpxtpx:hr>
1265 </gpxtpx:TrackPointExtension>
1266 </extensions>
1267 </trkpt>
1268 <trkpt lon="115.9418485" lat="-31.9213512">
1269 <ele>10.71</ele>
1270 <time>2008-11-13T09:04:03.000Z</time>
1271 <extensions>
1272 <gpxtpx:TrackPointExtension>
1273 <gpxtpx:hr>147</gpxtpx:hr>
1274 </gpxtpx:TrackPointExtension>
1275 </extensions>
1276 </trkpt>
1277 <trkpt lon="115.9421635" lat="-31.921209">
1278 <ele>9.27</ele>
1279 <time>2008-11-13T09:04:12.000Z</time>
1280 <extensions>
1281 <gpxtpx:TrackPointExtension>
1282 <gpxtpx:hr>152</gpxtpx:hr>
1283 </gpxtpx:TrackPointExtension>
1284 </extensions>
1285 </trkpt>
1286 <trkpt lon="115.9425309" lat="-31.9210845">
1287 <ele>7.35</ele>
1288 <time>2008-11-13T09:04:22.000Z</time>
1289 <extensions>
1290 <gpxtpx:TrackPointExtension>
1291 <gpxtpx:hr>152</gpxtpx:hr>
1292 </gpxtpx:TrackPointExtension>
1293 </extensions>
1294 </trkpt>
1295 <trkpt lon="115.94295" lat="-31.9210052">
1296 <ele>5.42</ele>
1297 <time>2008-11-13T09:04:33.000Z</time>
1298 <extensions>
1299 <gpxtpx:TrackPointExtension>
1300 <gpxtpx:hr>154</gpxtpx:hr>
1301 </gpxtpx:TrackPointExtension>
1302 </extensions>
1303 </trkpt>
1304 <trkpt lon="115.9432137" lat="-31.9209846">
1305 <ele>2.06</ele>
1306 <time>2008-11-13T09:04:40.000Z</time>
1307 <extensions>
1308 <gpxtpx:TrackPointExtension>
1309 <gpxtpx:hr>153</gpxtpx:hr>
1310 </gpxtpx:TrackPointExtension>
1311 </extensions>
1312 </trkpt>
1313 <trkpt lon="115.9435287" lat="-31.9209695">
1314 <ele>1.1</ele>
1315 <time>2008-11-13T09:04:48.000Z</time>
1316 <extensions>
1317 <gpxtpx:TrackPointExtension>
1318 <gpxtpx:hr>151</gpxtpx:hr>
1319 </gpxtpx:TrackPointExtension>
1320 </extensions>
1321 </trkpt>
1322 <trkpt lon="115.9437712" lat="-31.921006">
1323 <ele>0.14</ele>
1324 <time>2008-11-13T09:04:55.000Z</time>
1325 <extensions>
1326 <gpxtpx:TrackPointExtension>
1327 <gpxtpx:hr>149</gpxtpx:hr>
1328 </gpxtpx:TrackPointExtension>
1329 </extensions>
1330 </trkpt>
1331 <trkpt lon="115.9438822" lat="-31.9210373">
1332 <ele>-0.34</ele>
1333 <time>2008-11-13T09:05:01.000Z</time>
1334 <extensions>
1335 <gpxtpx:TrackPointExtension>
1336 <gpxtpx:hr>144</gpxtpx:hr>
1337 </gpxtpx:TrackPointExtension>
1338 </extensions>
1339 </trkpt>
1340 <trkpt lon="115.9439388" lat="-31.9210617">
1341 <ele>-0.82</ele>
1342 <time>2008-11-13T09:05:06.000Z</time>
1343 <extensions>
1344 <gpxtpx:TrackPointExtension>
1345 <gpxtpx:hr>139</gpxtpx:hr>
1346 </gpxtpx:TrackPointExtension>
1347 </extensions>
1348 </trkpt>
1349 <trkpt lon="115.9439762" lat="-31.9210753">
1350 <ele>-0.82</ele>
1351 <time>2008-11-13T09:05:10.000Z</time>
1352 <extensions>
1353 <gpxtpx:TrackPointExtension>
1354 <gpxtpx:hr>133</gpxtpx:hr>
1355 </gpxtpx:TrackPointExtension>
1356 </extensions>
1357 </trkpt>
1358 <trkpt lon="115.944003" lat="-31.9210878">
1359 <ele>-0.82</ele>
1360 <time>2008-11-13T09:05:13.000Z</time>
1361 <extensions>
1362 <gpxtpx:TrackPointExtension>
1363 <gpxtpx:hr>128</gpxtpx:hr>
1364 </gpxtpx:TrackPointExtension>
1365 </extensions>
1366 </trkpt>
1367 <trkpt lon="115.9440224" lat="-31.9210957">
1368 <ele>-0.82</ele>
1369 <time>2008-11-13T09:05:15.000Z</time>
1370 <extensions>
1371 <gpxtpx:TrackPointExtension>
1372 <gpxtpx:hr>123</gpxtpx:hr>
1373 </gpxtpx:TrackPointExtension>
1374 </extensions>
1375 </trkpt>
1376 <trkpt lon="115.9440762" lat="-31.9211194">
1377 <ele>-0.82</ele>
1378 <time>2008-11-13T09:05:22.000Z</time>
1379 <extensions>
1380 <gpxtpx:TrackPointExtension>
1381 <gpxtpx:hr>117</gpxtpx:hr>
1382 </gpxtpx:TrackPointExtension>
1383 </extensions>
1384 </trkpt>
1385 <trkpt lon="115.9441019" lat="-31.9211311">
1386 <ele>-0.34</ele>
1387 <time>2008-11-13T09:05:26.000Z</time>
1388 <extensions>
1389 <gpxtpx:TrackPointExtension>
1390 <gpxtpx:hr>112</gpxtpx:hr>
1391 </gpxtpx:TrackPointExtension>
1392 </extensions>
1393 </trkpt>
1394 <trkpt lon="115.9441127" lat="-31.9211358">
1395 <ele>-0.34</ele>
1396 <time>2008-11-13T09:05:28.000Z</time>
1397 <extensions>
1398 <gpxtpx:TrackPointExtension>
1399 <gpxtpx:hr>107</gpxtpx:hr>
1400 </gpxtpx:TrackPointExtension>
1401 </extensions>
1402 </trkpt>
1403 <trkpt lon="115.9441182" lat="-31.9211383">
1404 <ele>-0.82</ele>
1405 <time>2008-11-13T09:05:29.000Z</time>
1406 <extensions>
1407 <gpxtpx:TrackPointExtension>
1408 <gpxtpx:hr>107</gpxtpx:hr>
1409 </gpxtpx:TrackPointExtension>
1410 </extensions>
1411 </trkpt>
1412 <trkpt lon="115.9441814" lat="-31.9211577">
1413 <ele>-0.34</ele>
1414 <time>2008-11-13T09:05:39.000Z</time>
1415 <extensions>
1416 <gpxtpx:TrackPointExtension>
1417 <gpxtpx:hr>107</gpxtpx:hr>
1418 </gpxtpx:TrackPointExtension>
1419 </extensions>
1420 </trkpt>
1421 <trkpt lon="115.9442072" lat="-31.9211661">
1422 <ele>0.14</ele>
1423 <time>2008-11-13T09:05:43.000Z</time>
1424 <extensions>
1425 <gpxtpx:TrackPointExtension>
1426 <gpxtpx:hr>102</gpxtpx:hr>
1427 </gpxtpx:TrackPointExtension>
1428 </extensions>
1429 </trkpt>
1430 <trkpt lon="115.94427" lat="-31.9211917">
1431 <ele>-0.34</ele>
1432 <time>2008-11-13T09:05:52.000Z</time>
1433 <extensions>
1434 <gpxtpx:TrackPointExtension>
1435 <gpxtpx:hr>100</gpxtpx:hr>
1436 </gpxtpx:TrackPointExtension>
1437 </extensions>
1438 </trkpt>
1439 <trkpt lon="115.9443952" lat="-31.9212385">
1440 <ele>0.62</ele>
1441 <time>2008-11-13T09:06:00.000Z</time>
1442 <extensions>
1443 <gpxtpx:TrackPointExtension>
1444 <gpxtpx:hr>98</gpxtpx:hr>
1445 </gpxtpx:TrackPointExtension>
1446 </extensions>
1447 </trkpt>
1448 <trkpt lon="115.9446316" lat="-31.9213219">
1449 <ele>1.58</ele>
1450 <time>2008-11-13T09:06:07.000Z</time>
1451 <extensions>
1452 <gpxtpx:TrackPointExtension>
1453 <gpxtpx:hr>106</gpxtpx:hr>
1454 </gpxtpx:TrackPointExtension>
1455 </extensions>
1456 </trkpt>
1457 <trkpt lon="115.9446697" lat="-31.9213349">
1458 <ele>2.06</ele>
1459 <time>2008-11-13T09:06:08.000Z</time>
1460 <extensions>
1461 <gpxtpx:TrackPointExtension>
1462 <gpxtpx:hr>106</gpxtpx:hr>
1463 </gpxtpx:TrackPointExtension>
1464 </extensions>
1465 </trkpt>
1466 <trkpt lon="115.9447072" lat="-31.9213478">
1467 <ele>2.06</ele>
1468 <time>2008-11-13T09:06:09.000Z</time>
1469 <extensions>
1470 <gpxtpx:TrackPointExtension>
1471 <gpxtpx:hr>113</gpxtpx:hr>
1472 </gpxtpx:TrackPointExtension>
1473 </extensions>
1474 </trkpt>
1475 <trkpt lon="115.9447448" lat="-31.9213608">
1476 <ele>2.54</ele>
1477 <time>2008-11-13T09:06:10.000Z</time>
1478 <extensions>
1479 <gpxtpx:TrackPointExtension>
1480 <gpxtpx:hr>111</gpxtpx:hr>
1481 </gpxtpx:TrackPointExtension>
1482 </extensions>
1483 </trkpt>
1484 <trkpt lon="115.944782" lat="-31.9213742">
1485 <ele>2.54</ele>
1486 <time>2008-11-13T09:06:11.000Z</time>
1487 <extensions>
1488 <gpxtpx:TrackPointExtension>
1489 <gpxtpx:hr>117</gpxtpx:hr>
1490 </gpxtpx:TrackPointExtension>
1491 </extensions>
1492 </trkpt>
1493 <trkpt lon="115.9448567" lat="-31.9214011">
1494 <ele>2.06</ele>
1495 <time>2008-11-13T09:06:13.000Z</time>
1496 <extensions>
1497 <gpxtpx:TrackPointExtension>
1498 <gpxtpx:hr>125</gpxtpx:hr>
1499 </gpxtpx:TrackPointExtension>
1500 </extensions>
1501 </trkpt>
1502 <trkpt lon="115.9448946" lat="-31.921415">
1503 <ele>2.54</ele>
1504 <time>2008-11-13T09:06:14.000Z</time>
1505 <extensions>
1506 <gpxtpx:TrackPointExtension>
1507 <gpxtpx:hr>132</gpxtpx:hr>
1508 </gpxtpx:TrackPointExtension>
1509 </extensions>
1510 </trkpt>
1511 <trkpt lon="115.9449317" lat="-31.9214286">
1512 <ele>2.54</ele>
1513 <time>2008-11-13T09:06:15.000Z</time>
1514 <extensions>
1515 <gpxtpx:TrackPointExtension>
1516 <gpxtpx:hr>132</gpxtpx:hr>
1517 </gpxtpx:TrackPointExtension>
1518 </extensions>
1519 </trkpt>
1520 <trkpt lon="115.945084" lat="-31.9214821">
1521 <ele>2.54</ele>
1522 <time>2008-11-13T09:06:19.000Z</time>
1523 <extensions>
1524 <gpxtpx:TrackPointExtension>
1525 <gpxtpx:hr>137</gpxtpx:hr>
1526 </gpxtpx:TrackPointExtension>
1527 </extensions>
1528 </trkpt>
1529 <trkpt lon="115.9451618" lat="-31.9215106">
1530 <ele>3.02</ele>
1531 <time>2008-11-13T09:06:21.000Z</time>
1532 <extensions>
1533 <gpxtpx:TrackPointExtension>
1534 <gpxtpx:hr>144</gpxtpx:hr>
1535 </gpxtpx:TrackPointExtension>
1536 </extensions>
1537 </trkpt>
1538 <trkpt lon="115.9451992" lat="-31.921525">
1539 <ele>3.02</ele>
1540 <time>2008-11-13T09:06:22.000Z</time>
1541 <extensions>
1542 <gpxtpx:TrackPointExtension>
1543 <gpxtpx:hr>144</gpxtpx:hr>
1544 </gpxtpx:TrackPointExtension>
1545 </extensions>
1546 </trkpt>
1547 <trkpt lon="115.945525" lat="-31.9216517">
1548 <ele>3.02</ele>
1549 <time>2008-11-13T09:06:31.000Z</time>
1550 <extensions>
1551 <gpxtpx:TrackPointExtension>
1552 <gpxtpx:hr>141</gpxtpx:hr>
1553 </gpxtpx:TrackPointExtension>
1554 </extensions>
1555 </trkpt>
1556 <trkpt lon="115.9458155" lat="-31.9217649">
1557 <ele>3.5</ele>
1558 <time>2008-11-13T09:06:39.000Z</time>
1559 <extensions>
1560 <gpxtpx:TrackPointExtension>
1561 <gpxtpx:hr>141</gpxtpx:hr>
1562 </gpxtpx:TrackPointExtension>
1563 </extensions>
1564 </trkpt>
1565 <trkpt lon="115.9459571" lat="-31.9218182">
1566 <ele>3.5</ele>
1567 <time>2008-11-13T09:06:43.000Z</time>
1568 <extensions>
1569 <gpxtpx:TrackPointExtension>
1570 <gpxtpx:hr>146</gpxtpx:hr>
1571 </gpxtpx:TrackPointExtension>
1572 </extensions>
1573 </trkpt>
1574 <trkpt lon="115.9462658" lat="-31.921947">
1575 <ele>3.02</ele>
1576 <time>2008-11-13T09:06:52.000Z</time>
1577 <extensions>
1578 <gpxtpx:TrackPointExtension>
1579 <gpxtpx:hr>146</gpxtpx:hr>
1580 </gpxtpx:TrackPointExtension>
1581 </extensions>
1582 </trkpt>
1583 <trkpt lon="115.9465005" lat="-31.9220549">
1584 <ele>4.46</ele>
1585 <time>2008-11-13T09:06:59.000Z</time>
1586 <extensions>
1587 <gpxtpx:TrackPointExtension>
1588 <gpxtpx:hr>148</gpxtpx:hr>
1589 </gpxtpx:TrackPointExtension>
1590 </extensions>
1591 </trkpt>
1592 <trkpt lon="115.9466632" lat="-31.9221305">
1593 <ele>3.02</ele>
1594 <time>2008-11-13T09:07:04.000Z</time>
1595 <extensions>
1596 <gpxtpx:TrackPointExtension>
1597 <gpxtpx:hr>149</gpxtpx:hr>
1598 </gpxtpx:TrackPointExtension>
1599 </extensions>
1600 </trkpt>
1601 <trkpt lon="115.946946" lat="-31.9222646">
1602 <ele>-1.79</ele>
1603 <time>2008-11-13T09:07:13.000Z</time>
1604 <extensions>
1605 <gpxtpx:TrackPointExtension>
1606 <gpxtpx:hr>149</gpxtpx:hr>
1607 </gpxtpx:TrackPointExtension>
1608 </extensions>
1609 </trkpt>
1610 <trkpt lon="115.9471384" lat="-31.9223501">
1611 <ele>-2.75</ele>
1612 <time>2008-11-13T09:07:19.000Z</time>
1613 <extensions>
1614 <gpxtpx:TrackPointExtension>
1615 <gpxtpx:hr>148</gpxtpx:hr>
1616 </gpxtpx:TrackPointExtension>
1617 </extensions>
1618 </trkpt>
1619 <trkpt lon="115.9473387" lat="-31.9224358">
1620 <ele>-3.23</ele>
1621 <time>2008-11-13T09:07:25.000Z</time>
1622 <extensions>
1623 <gpxtpx:TrackPointExtension>
1624 <gpxtpx:hr>148</gpxtpx:hr>
1625 </gpxtpx:TrackPointExtension>
1626 </extensions>
1627 </trkpt>
1628 <trkpt lon="115.9475544" lat="-31.9225196">
1629 <ele>-1.79</ele>
1630 <time>2008-11-13T09:07:31.000Z</time>
1631 <extensions>
1632 <gpxtpx:TrackPointExtension>
1633 <gpxtpx:hr>149</gpxtpx:hr>
1634 </gpxtpx:TrackPointExtension>
1635 </extensions>
1636 </trkpt>
1637 <trkpt lon="115.9477764" lat="-31.9225992">
1638 <ele>-1.3</ele>
1639 <time>2008-11-13T09:07:37.000Z</time>
1640 <extensions>
1641 <gpxtpx:TrackPointExtension>
1642 <gpxtpx:hr>148</gpxtpx:hr>
1643 </gpxtpx:TrackPointExtension>
1644 </extensions>
1645 </trkpt>
1646 <trkpt lon="115.948147" lat="-31.922722">
1647 <ele>1.1</ele>
1648 <time>2008-11-13T09:07:47.000Z</time>
1649 <extensions>
1650 <gpxtpx:TrackPointExtension>
1651 <gpxtpx:hr>148</gpxtpx:hr>
1652 </gpxtpx:TrackPointExtension>
1653 </extensions>
1654 </trkpt>
1655 <trkpt lon="115.9484221" lat="-31.9227687">
1656 <ele>2.54</ele>
1657 <time>2008-11-13T09:07:54.000Z</time>
1658 <extensions>
1659 <gpxtpx:TrackPointExtension>
1660 <gpxtpx:hr>149</gpxtpx:hr>
1661 </gpxtpx:TrackPointExtension>
1662 </extensions>
1663 </trkpt>
1664 <trkpt lon="115.9487792" lat="-31.9228096">
1665 <ele>3.98</ele>
1666 <time>2008-11-13T09:08:03.000Z</time>
1667 <extensions>
1668 <gpxtpx:TrackPointExtension>
1669 <gpxtpx:hr>148</gpxtpx:hr>
1670 </gpxtpx:TrackPointExtension>
1671 </extensions>
1672 </trkpt>
1673 <trkpt lon="115.9489292" lat="-31.9228281">
1674 <ele>4.94</ele>
1675 <time>2008-11-13T09:08:07.000Z</time>
1676 <extensions>
1677 <gpxtpx:TrackPointExtension>
1678 <gpxtpx:hr>153</gpxtpx:hr>
1679 </gpxtpx:TrackPointExtension>
1680 </extensions>
1681 </trkpt>
1682 <trkpt lon="115.9492438" lat="-31.9228516">
1683 <ele>3.5</ele>
1684 <time>2008-11-13T09:08:15.000Z</time>
1685 <extensions>
1686 <gpxtpx:TrackPointExtension>
1687 <gpxtpx:hr>155</gpxtpx:hr>
1688 </gpxtpx:TrackPointExtension>
1689 </extensions>
1690 </trkpt>
1691 <trkpt lon="115.9495183" lat="-31.9228661">
1692 <ele>3.5</ele>
1693 <time>2008-11-13T09:08:22.000Z</time>
1694 <extensions>
1695 <gpxtpx:TrackPointExtension>
1696 <gpxtpx:hr>151</gpxtpx:hr>
1697 </gpxtpx:TrackPointExtension>
1698 </extensions>
1699 </trkpt>
1700 <trkpt lon="115.9497519" lat="-31.9228599">
1701 <ele>2.54</ele>
1702 <time>2008-11-13T09:08:28.000Z</time>
1703 <extensions>
1704 <gpxtpx:TrackPointExtension>
1705 <gpxtpx:hr>150</gpxtpx:hr>
1706 </gpxtpx:TrackPointExtension>
1707 </extensions>
1708 </trkpt>
1709 <trkpt lon="115.9500617" lat="-31.9228292">
1710 <ele>0.62</ele>
1711 <time>2008-11-13T09:08:36.000Z</time>
1712 <extensions>
1713 <gpxtpx:TrackPointExtension>
1714 <gpxtpx:hr>149</gpxtpx:hr>
1715 </gpxtpx:TrackPointExtension>
1716 </extensions>
1717 </trkpt>
1718 <trkpt lon="115.9503627" lat="-31.922761">
1719 <ele>1.58</ele>
1720 <time>2008-11-13T09:08:44.000Z</time>
1721 <extensions>
1722 <gpxtpx:TrackPointExtension>
1723 <gpxtpx:hr>148</gpxtpx:hr>
1724 </gpxtpx:TrackPointExtension>
1725 </extensions>
1726 </trkpt>
1727 <trkpt lon="115.9506469" lat="-31.9226347">
1728 <ele>1.1</ele>
1729 <time>2008-11-13T09:08:52.000Z</time>
1730 <extensions>
1731 <gpxtpx:TrackPointExtension>
1732 <gpxtpx:hr>149</gpxtpx:hr>
1733 </gpxtpx:TrackPointExtension>
1734 </extensions>
1735 </trkpt>
1736 <trkpt lon="115.9509052" lat="-31.9224697">
1737 <ele>0.62</ele>
1738 <time>2008-11-13T09:09:00.000Z</time>
1739 <extensions>
1740 <gpxtpx:TrackPointExtension>
1741 <gpxtpx:hr>147</gpxtpx:hr>
1742 </gpxtpx:TrackPointExtension>
1743 </extensions>
1744 </trkpt>
1745 <trkpt lon="115.9511437" lat="-31.9222721">
1746 <ele>-0.82</ele>
1747 <time>2008-11-13T09:09:08.000Z</time>
1748 <extensions>
1749 <gpxtpx:TrackPointExtension>
1750 <gpxtpx:hr>147</gpxtpx:hr>
1751 </gpxtpx:TrackPointExtension>
1752 </extensions>
1753 </trkpt>
1754 <trkpt lon="115.9513655" lat="-31.922044">
1755 <ele>-0.34</ele>
1756 <time>2008-11-13T09:09:17.000Z</time>
1757 <extensions>
1758 <gpxtpx:TrackPointExtension>
1759 <gpxtpx:hr>147</gpxtpx:hr>
1760 </gpxtpx:TrackPointExtension>
1761 </extensions>
1762 </trkpt>
1763 <trkpt lon="115.9515169" lat="-31.9218528">
1764 <ele>0.62</ele>
1765 <time>2008-11-13T09:09:24.000Z</time>
1766 <extensions>
1767 <gpxtpx:TrackPointExtension>
1768 <gpxtpx:hr>145</gpxtpx:hr>
1769 </gpxtpx:TrackPointExtension>
1770 </extensions>
1771 </trkpt>
1772 <trkpt lon="115.9516473" lat="-31.9216815">
1773 <ele>0.62</ele>
1774 <time>2008-11-13T09:09:30.000Z</time>
1775 <extensions>
1776 <gpxtpx:TrackPointExtension>
1777 <gpxtpx:hr>151</gpxtpx:hr>
1778 </gpxtpx:TrackPointExtension>
1779 </extensions>
1780 </trkpt>
1781 <trkpt lon="115.9518539" lat="-31.9214251">
1782 <ele>2.06</ele>
1783 <time>2008-11-13T09:09:39.000Z</time>
1784 <extensions>
1785 <gpxtpx:TrackPointExtension>
1786 <gpxtpx:hr>147</gpxtpx:hr>
1787 </gpxtpx:TrackPointExtension>
1788 </extensions>
1789 </trkpt>
1790 <trkpt lon="115.952131" lat="-31.921081">
1791 <ele>2.54</ele>
1792 <time>2008-11-13T09:09:51.000Z</time>
1793 <extensions>
1794 <gpxtpx:TrackPointExtension>
1795 <gpxtpx:hr>146</gpxtpx:hr>
1796 </gpxtpx:TrackPointExtension>
1797 </extensions>
1798 </trkpt>
1799 <trkpt lon="115.9524134" lat="-31.9207449">
1800 <ele>3.02</ele>
1801 <time>2008-11-13T09:10:03.000Z</time>
1802 <extensions>
1803 <gpxtpx:TrackPointExtension>
1804 <gpxtpx:hr>148</gpxtpx:hr>
1805 </gpxtpx:TrackPointExtension>
1806 </extensions>
1807 </trkpt>
1808 <trkpt lon="115.9526182" lat="-31.9204574">
1809 <ele>3.5</ele>
1810 <time>2008-11-13T09:10:13.000Z</time>
1811 <extensions>
1812 <gpxtpx:TrackPointExtension>
1813 <gpxtpx:hr>148</gpxtpx:hr>
1814 </gpxtpx:TrackPointExtension>
1815 </extensions>
1816 </trkpt>
1817 <trkpt lon="115.9527933" lat="-31.9201173">
1818 <ele>3.98</ele>
1819 <time>2008-11-13T09:10:24.000Z</time>
1820 <extensions>
1821 <gpxtpx:TrackPointExtension>
1822 <gpxtpx:hr>149</gpxtpx:hr>
1823 </gpxtpx:TrackPointExtension>
1824 </extensions>
1825 </trkpt>
1826 <trkpt lon="115.9529562" lat="-31.919806">
1827 <ele>3.98</ele>
1828 <time>2008-11-13T09:10:34.000Z</time>
1829 <extensions>
1830 <gpxtpx:TrackPointExtension>
1831 <gpxtpx:hr>148</gpxtpx:hr>
1832 </gpxtpx:TrackPointExtension>
1833 </extensions>
1834 </trkpt>
1835 <trkpt lon="115.9531097" lat="-31.9195684">
1836 <ele>3.5</ele>
1837 <time>2008-11-13T09:10:42.000Z</time>
1838 <extensions>
1839 <gpxtpx:TrackPointExtension>
1840 <gpxtpx:hr>149</gpxtpx:hr>
1841 </gpxtpx:TrackPointExtension>
1842 </extensions>
1843 </trkpt>
1844 <trkpt lon="115.9532807" lat="-31.9193348">
1845 <ele>3.02</ele>
1846 <time>2008-11-13T09:10:50.000Z</time>
1847 <extensions>
1848 <gpxtpx:TrackPointExtension>
1849 <gpxtpx:hr>149</gpxtpx:hr>
1850 </gpxtpx:TrackPointExtension>
1851 </extensions>
1852 </trkpt>
1853 <trkpt lon="115.9535241" lat="-31.9190183">
1854 <ele>3.02</ele>
1855 <time>2008-11-13T09:11:01.000Z</time>
1856 <extensions>
1857 <gpxtpx:TrackPointExtension>
1858 <gpxtpx:hr>149</gpxtpx:hr>
1859 </gpxtpx:TrackPointExtension>
1860 </extensions>
1861 </trkpt>
1862 <trkpt lon="115.9537719" lat="-31.918714">
1863 <ele>2.06</ele>
1864 <time>2008-11-13T09:11:12.000Z</time>
1865 <extensions>
1866 <gpxtpx:TrackPointExtension>
1867 <gpxtpx:hr>148</gpxtpx:hr>
1868 </gpxtpx:TrackPointExtension>
1869 </extensions>
1870 </trkpt>
1871 <trkpt lon="115.9539235" lat="-31.918516">
1872 <ele>2.06</ele>
1873 <time>2008-11-13T09:11:19.000Z</time>
1874 <extensions>
1875 <gpxtpx:TrackPointExtension>
1876 <gpxtpx:hr>149</gpxtpx:hr>
1877 </gpxtpx:TrackPointExtension>
1878 </extensions>
1879 </trkpt>
1880 <trkpt lon="115.9540099" lat="-31.9184025">
1881 <ele>1.58</ele>
1882 <time>2008-11-13T09:11:23.000Z</time>
1883 <extensions>
1884 <gpxtpx:TrackPointExtension>
1885 <gpxtpx:hr>149</gpxtpx:hr>
1886 </gpxtpx:TrackPointExtension>
1887 </extensions>
1888 </trkpt>
1889 <trkpt lon="115.954238" lat="-31.918119">
1890 <ele>2.54</ele>
1891 <time>2008-11-13T09:11:33.000Z</time>
1892 <extensions>
1893 <gpxtpx:TrackPointExtension>
1894 <gpxtpx:hr>150</gpxtpx:hr>
1895 </gpxtpx:TrackPointExtension>
1896 </extensions>
1897 </trkpt>
1898 <trkpt lon="115.954394" lat="-31.9179249">
1899 <ele>2.54</ele>
1900 <time>2008-11-13T09:11:40.000Z</time>
1901 <extensions>
1902 <gpxtpx:TrackPointExtension>
1903 <gpxtpx:hr>151</gpxtpx:hr>
1904 </gpxtpx:TrackPointExtension>
1905 </extensions>
1906 </trkpt>
1907 <trkpt lon="115.9545025" lat="-31.9177782">
1908 <ele>2.54</ele>
1909 <time>2008-11-13T09:11:45.000Z</time>
1910 <extensions>
1911 <gpxtpx:TrackPointExtension>
1912 <gpxtpx:hr>158</gpxtpx:hr>
1913 </gpxtpx:TrackPointExtension>
1914 </extensions>
1915 </trkpt>
1916 <trkpt lon="115.9546399" lat="-31.9175669">
1917 <ele>2.06</ele>
1918 <time>2008-11-13T09:11:52.000Z</time>
1919 <extensions>
1920 <gpxtpx:TrackPointExtension>
1921 <gpxtpx:hr>154</gpxtpx:hr>
1922 </gpxtpx:TrackPointExtension>
1923 </extensions>
1924 </trkpt>
1925 <trkpt lon="115.954784" lat="-31.9173559">
1926 <ele>1.1</ele>
1927 <time>2008-11-13T09:11:59.000Z</time>
1928 <extensions>
1929 <gpxtpx:TrackPointExtension>
1930 <gpxtpx:hr>153</gpxtpx:hr>
1931 </gpxtpx:TrackPointExtension>
1932 </extensions>
1933 </trkpt>
1934 <trkpt lon="115.9549579" lat="-31.9171187">
1935 <ele>0.62</ele>
1936 <time>2008-11-13T09:12:07.000Z</time>
1937 <extensions>
1938 <gpxtpx:TrackPointExtension>
1939 <gpxtpx:hr>152</gpxtpx:hr>
1940 </gpxtpx:TrackPointExtension>
1941 </extensions>
1942 </trkpt>
1943 <trkpt lon="115.9552052" lat="-31.9168272">
1944 <ele>2.06</ele>
1945 <time>2008-11-13T09:12:17.000Z</time>
1946 <extensions>
1947 <gpxtpx:TrackPointExtension>
1948 <gpxtpx:hr>151</gpxtpx:hr>
1949 </gpxtpx:TrackPointExtension>
1950 </extensions>
1951 </trkpt>
1952 <trkpt lon="115.9554131" lat="-31.916581">
1953 <ele>2.54</ele>
1954 <time>2008-11-13T09:12:26.000Z</time>
1955 <extensions>
1956 <gpxtpx:TrackPointExtension>
1957 <gpxtpx:hr>151</gpxtpx:hr>
1958 </gpxtpx:TrackPointExtension>
1959 </extensions>
1960 </trkpt>
1961 <trkpt lon="115.9556696" lat="-31.9162813">
1962 <ele>3.02</ele>
1963 <time>2008-11-13T09:12:37.000Z</time>
1964 <extensions>
1965 <gpxtpx:TrackPointExtension>
1966 <gpxtpx:hr>151</gpxtpx:hr>
1967 </gpxtpx:TrackPointExtension>
1968 </extensions>
1969 </trkpt>
1970 <trkpt lon="115.9559225" lat="-31.9160188">
1971 <ele>3.02</ele>
1972 <time>2008-11-13T09:12:47.000Z</time>
1973 <extensions>
1974 <gpxtpx:TrackPointExtension>
1975 <gpxtpx:hr>151</gpxtpx:hr>
1976 </gpxtpx:TrackPointExtension>
1977 </extensions>
1978 </trkpt>
1979 <trkpt lon="115.9562537" lat="-31.9157089">
1980 <ele>2.54</ele>
1981 <time>2008-11-13T09:12:59.000Z</time>
1982 <extensions>
1983 <gpxtpx:TrackPointExtension>
1984 <gpxtpx:hr>154</gpxtpx:hr>
1985 </gpxtpx:TrackPointExtension>
1986 </extensions>
1987 </trkpt>
1988 <trkpt lon="115.9565166" lat="-31.9154905">
1989 <ele>2.06</ele>
1990 <time>2008-11-13T09:13:08.000Z</time>
1991 <extensions>
1992 <gpxtpx:TrackPointExtension>
1993 <gpxtpx:hr>154</gpxtpx:hr>
1994 </gpxtpx:TrackPointExtension>
1995 </extensions>
1996 </trkpt>
1997 <trkpt lon="115.9567515" lat="-31.9152974">
1998 <ele>0.62</ele>
1999 <time>2008-11-13T09:13:16.000Z</time>
2000 <extensions>
2001 <gpxtpx:TrackPointExtension>
2002 <gpxtpx:hr>155</gpxtpx:hr>
2003 </gpxtpx:TrackPointExtension>
2004 </extensions>
2005 </trkpt>
2006 <trkpt lon="115.9569592" lat="-31.9151365">
2007 <ele>2.06</ele>
2008 <time>2008-11-13T09:13:23.000Z</time>
2009 <extensions>
2010 <gpxtpx:TrackPointExtension>
2011 <gpxtpx:hr>152</gpxtpx:hr>
2012 </gpxtpx:TrackPointExtension>
2013 </extensions>
2014 </trkpt>
2015 <trkpt lon="115.9572293" lat="-31.914938">
2016 <ele>3.02</ele>
2017 <time>2008-11-13T09:13:32.000Z</time>
2018 <extensions>
2019 <gpxtpx:TrackPointExtension>
2020 <gpxtpx:hr>151</gpxtpx:hr>
2021 </gpxtpx:TrackPointExtension>
2022 </extensions>
2023 </trkpt>
2024 <trkpt lon="115.9575299" lat="-31.9147259">
2025 <ele>3.98</ele>
2026 <time>2008-11-13T09:13:42.000Z</time>
2027 <extensions>
2028 <gpxtpx:TrackPointExtension>
2029 <gpxtpx:hr>150</gpxtpx:hr>
2030 </gpxtpx:TrackPointExtension>
2031 </extensions>
2032 </trkpt>
2033 <trkpt lon="115.9577843" lat="-31.9145368">
2034 <ele>3.98</ele>
2035 <time>2008-11-13T09:13:51.000Z</time>
2036 <extensions>
2037 <gpxtpx:TrackPointExtension>
2038 <gpxtpx:hr>148</gpxtpx:hr>
2039 </gpxtpx:TrackPointExtension>
2040 </extensions>
2041 </trkpt>
2042 <trkpt lon="115.9579086" lat="-31.9144489">
2043 <ele>3.02</ele>
2044 <time>2008-11-13T09:13:58.000Z</time>
2045 <extensions>
2046 <gpxtpx:TrackPointExtension>
2047 <gpxtpx:hr>143</gpxtpx:hr>
2048 </gpxtpx:TrackPointExtension>
2049 </extensions>
2050 </trkpt>
2051 <trkpt lon="115.9579529" lat="-31.9144219">
2052 <ele>3.02</ele>
2053 <time>2008-11-13T09:14:02.000Z</time>
2054 <extensions>
2055 <gpxtpx:TrackPointExtension>
2056 <gpxtpx:hr>137</gpxtpx:hr>
2057 </gpxtpx:TrackPointExtension>
2058 </extensions>
2059 </trkpt>
2060 <trkpt lon="115.9579946" lat="-31.9143954">
2061 <ele>1.58</ele>
2062 <time>2008-11-13T09:14:07.000Z</time>
2063 <extensions>
2064 <gpxtpx:TrackPointExtension>
2065 <gpxtpx:hr>131</gpxtpx:hr>
2066 </gpxtpx:TrackPointExtension>
2067 </extensions>
2068 </trkpt>
2069 <trkpt lon="115.9580319" lat="-31.9143682">
2070 <ele>0.62</ele>
2071 <time>2008-11-13T09:14:13.000Z</time>
2072 <extensions>
2073 <gpxtpx:TrackPointExtension>
2074 <gpxtpx:hr>126</gpxtpx:hr>
2075 </gpxtpx:TrackPointExtension>
2076 </extensions>
2077 </trkpt>
2078 <trkpt lon="115.9580453" lat="-31.9143579">
2079 <ele>0.62</ele>
2080 <time>2008-11-13T09:14:15.000Z</time>
2081 <extensions>
2082 <gpxtpx:TrackPointExtension>
2083 <gpxtpx:hr>121</gpxtpx:hr>
2084 </gpxtpx:TrackPointExtension>
2085 </extensions>
2086 </trkpt>
2087 <trkpt lon="115.9580883" lat="-31.9143236">
2088 <ele>1.1</ele>
2089 <time>2008-11-13T09:14:21.000Z</time>
2090 <extensions>
2091 <gpxtpx:TrackPointExtension>
2092 <gpxtpx:hr>115</gpxtpx:hr>
2093 </gpxtpx:TrackPointExtension>
2094 </extensions>
2095 </trkpt>
2096 <trkpt lon="115.958105" lat="-31.9143094">
2097 <ele>0.62</ele>
2098 <time>2008-11-13T09:14:23.000Z</time>
2099 <extensions>
2100 <gpxtpx:TrackPointExtension>
2101 <gpxtpx:hr>110</gpxtpx:hr>
2102 </gpxtpx:TrackPointExtension>
2103 </extensions>
2104 </trkpt>
2105 <trkpt lon="115.9581127" lat="-31.9143024">
2106 <ele>0.62</ele>
2107 <time>2008-11-13T09:14:24.000Z</time>
2108 <extensions>
2109 <gpxtpx:TrackPointExtension>
2110 <gpxtpx:hr>110</gpxtpx:hr>
2111 </gpxtpx:TrackPointExtension>
2112 </extensions>
2113 </trkpt>
2114 <trkpt lon="115.9581877" lat="-31.9142402">
2115 <ele>0.62</ele>
2116 <time>2008-11-13T09:14:34.000Z</time>
2117 <extensions>
2118 <gpxtpx:TrackPointExtension>
2119 <gpxtpx:hr>106</gpxtpx:hr>
2120 </gpxtpx:TrackPointExtension>
2121 </extensions>
2122 </trkpt>
2123 <trkpt lon="115.9582819" lat="-31.9141656">
2124 <ele>0.14</ele>
2125 <time>2008-11-13T09:14:42.000Z</time>
2126 <extensions>
2127 <gpxtpx:TrackPointExtension>
2128 <gpxtpx:hr>104</gpxtpx:hr>
2129 </gpxtpx:TrackPointExtension>
2130 </extensions>
2131 </trkpt>
2132 <trkpt lon="115.9584103" lat="-31.9140589">
2133 <ele>0.62</ele>
2134 <time>2008-11-13T09:14:51.000Z</time>
2135 <extensions>
2136 <gpxtpx:TrackPointExtension>
2137 <gpxtpx:hr>103</gpxtpx:hr>
2138 </gpxtpx:TrackPointExtension>
2139 </extensions>
2140 </trkpt>
2141 <trkpt lon="115.9585574" lat="-31.9139399">
2142 <ele>-0.82</ele>
2143 <time>2008-11-13T09:14:58.000Z</time>
2144 <extensions>
2145 <gpxtpx:TrackPointExtension>
2146 <gpxtpx:hr>103</gpxtpx:hr>
2147 </gpxtpx:TrackPointExtension>
2148 </extensions>
2149 </trkpt>
2150 <trkpt lon="115.9586846" lat="-31.9138522">
2151 <ele>-0.82</ele>
2152 <time>2008-11-13T09:15:02.000Z</time>
2153 <extensions>
2154 <gpxtpx:TrackPointExtension>
2155 <gpxtpx:hr>111</gpxtpx:hr>
2156 </gpxtpx:TrackPointExtension>
2157 </extensions>
2158 </trkpt>
2159 <trkpt lon="115.9587192" lat="-31.9138274">
2160 <ele>-0.82</ele>
2161 <time>2008-11-13T09:15:03.000Z</time>
2162 <extensions>
2163 <gpxtpx:TrackPointExtension>
2164 <gpxtpx:hr>111</gpxtpx:hr>
2165 </gpxtpx:TrackPointExtension>
2166 </extensions>
2167 </trkpt>
2168 <trkpt lon="115.9589907" lat="-31.9136317">
2169 <ele>-0.34</ele>
2170 <time>2008-11-13T09:15:11.000Z</time>
2171 <extensions>
2172 <gpxtpx:TrackPointExtension>
2173 <gpxtpx:hr>118</gpxtpx:hr>
2174 </gpxtpx:TrackPointExtension>
2175 </extensions>
2176 </trkpt>
2177 <trkpt lon="115.9591221" lat="-31.9135377">
2178 <ele>0.62</ele>
2179 <time>2008-11-13T09:15:15.000Z</time>
2180 <extensions>
2181 <gpxtpx:TrackPointExtension>
2182 <gpxtpx:hr>123</gpxtpx:hr>
2183 </gpxtpx:TrackPointExtension>
2184 </extensions>
2185 </trkpt>
2186 <trkpt lon="115.959189" lat="-31.9134917">
2187 <ele>0.62</ele>
2188 <time>2008-11-13T09:15:17.000Z</time>
2189 <extensions>
2190 <gpxtpx:TrackPointExtension>
2191 <gpxtpx:hr>128</gpxtpx:hr>
2192 </gpxtpx:TrackPointExtension>
2193 </extensions>
2194 </trkpt>
2195 <trkpt lon="115.9592222" lat="-31.9134694">
2196 <ele>0.62</ele>
2197 <time>2008-11-13T09:15:18.000Z</time>
2198 <extensions>
2199 <gpxtpx:TrackPointExtension>
2200 <gpxtpx:hr>133</gpxtpx:hr>
2201 </gpxtpx:TrackPointExtension>
2202 </extensions>
2203 </trkpt>
2204 <trkpt lon="115.959256" lat="-31.9134466">
2205 <ele>0.62</ele>
2206 <time>2008-11-13T09:15:19.000Z</time>
2207 <extensions>
2208 <gpxtpx:TrackPointExtension>
2209 <gpxtpx:hr>133</gpxtpx:hr>
2210 </gpxtpx:TrackPointExtension>
2211 </extensions>
2212 </trkpt>
2213 <trkpt lon="115.9594517" lat="-31.9133156">
2214 <ele>2.54</ele>
2215 <time>2008-11-13T09:15:25.000Z</time>
2216 <extensions>
2217 <gpxtpx:TrackPointExtension>
2218 <gpxtpx:hr>138</gpxtpx:hr>
2219 </gpxtpx:TrackPointExtension>
2220 </extensions>
2221 </trkpt>
2222 <trkpt lon="115.9597009" lat="-31.9131379">
2223 <ele>2.06</ele>
2224 <time>2008-11-13T09:15:33.000Z</time>
2225 <extensions>
2226 <gpxtpx:TrackPointExtension>
2227 <gpxtpx:hr>143</gpxtpx:hr>
2228 </gpxtpx:TrackPointExtension>
2229 </extensions>
2230 </trkpt>
2231 <trkpt lon="115.9599095" lat="-31.9129871">
2232 <ele>2.06</ele>
2233 <time>2008-11-13T09:15:40.000Z</time>
2234 <extensions>
2235 <gpxtpx:TrackPointExtension>
2236 <gpxtpx:hr>149</gpxtpx:hr>
2237 </gpxtpx:TrackPointExtension>
2238 </extensions>
2239 </trkpt>
2240 <trkpt lon="115.960212" lat="-31.9127618">
2241 <ele>-0.34</ele>
2242 <time>2008-11-13T09:15:50.000Z</time>
2243 <extensions>
2244 <gpxtpx:TrackPointExtension>
2245 <gpxtpx:hr>150</gpxtpx:hr>
2246 </gpxtpx:TrackPointExtension>
2247 </extensions>
2248 </trkpt>
2249 <trkpt lon="115.9604712" lat="-31.9125596">
2250 <ele>-0.82</ele>
2251 <time>2008-11-13T09:15:59.000Z</time>
2252 <extensions>
2253 <gpxtpx:TrackPointExtension>
2254 <gpxtpx:hr>150</gpxtpx:hr>
2255 </gpxtpx:TrackPointExtension>
2256 </extensions>
2257 </trkpt>
2258 <trkpt lon="115.9607121" lat="-31.9123877">
2259 <ele>1.1</ele>
2260 <time>2008-11-13T09:16:07.000Z</time>
2261 <extensions>
2262 <gpxtpx:TrackPointExtension>
2263 <gpxtpx:hr>150</gpxtpx:hr>
2264 </gpxtpx:TrackPointExtension>
2265 </extensions>
2266 </trkpt>
2267 <trkpt lon="115.9609432" lat="-31.9122123">
2268 <ele>1.1</ele>
2269 <time>2008-11-13T09:16:15.000Z</time>
2270 <extensions>
2271 <gpxtpx:TrackPointExtension>
2272 <gpxtpx:hr>151</gpxtpx:hr>
2273 </gpxtpx:TrackPointExtension>
2274 </extensions>
2275 </trkpt>
2276 <trkpt lon="115.9611097" lat="-31.912082">
2277 <ele>0.62</ele>
2278 <time>2008-11-13T09:16:21.000Z</time>
2279 <extensions>
2280 <gpxtpx:TrackPointExtension>
2281 <gpxtpx:hr>152</gpxtpx:hr>
2282 </gpxtpx:TrackPointExtension>
2283 </extensions>
2284 </trkpt>
2285 <trkpt lon="115.9613761" lat="-31.9118289">
2286 <ele>0.62</ele>
2287 <time>2008-11-13T09:16:31.000Z</time>
2288 <extensions>
2289 <gpxtpx:TrackPointExtension>
2290 <gpxtpx:hr>151</gpxtpx:hr>
2291 </gpxtpx:TrackPointExtension>
2292 </extensions>
2293 </trkpt>
2294 <trkpt lon="115.9615228" lat="-31.9116412">
2295 <ele>-0.82</ele>
2296 <time>2008-11-13T09:16:38.000Z</time>
2297 <extensions>
2298 <gpxtpx:TrackPointExtension>
2299 <gpxtpx:hr>150</gpxtpx:hr>
2300 </gpxtpx:TrackPointExtension>
2301 </extensions>
2302 </trkpt>
2303 <trkpt lon="115.9616191" lat="-31.9114601">
2304 <ele>-0.82</ele>
2305 <time>2008-11-13T09:16:44.000Z</time>
2306 <extensions>
2307 <gpxtpx:TrackPointExtension>
2308 <gpxtpx:hr>150</gpxtpx:hr>
2309 </gpxtpx:TrackPointExtension>
2310 </extensions>
2311 </trkpt>
2312 <trkpt lon="115.9616693" lat="-31.9113015">
2313 <ele>-1.3</ele>
2314 <time>2008-11-13T09:16:49.000Z</time>
2315 <extensions>
2316 <gpxtpx:TrackPointExtension>
2317 <gpxtpx:hr>149</gpxtpx:hr>
2318 </gpxtpx:TrackPointExtension>
2319 </extensions>
2320 </trkpt>
2321 <trkpt lon="115.9617223" lat="-31.9110301">
2322 <ele>-1.3</ele>
2323 <time>2008-11-13T09:16:57.000Z</time>
2324 <extensions>
2325 <gpxtpx:TrackPointExtension>
2326 <gpxtpx:hr>149</gpxtpx:hr>
2327 </gpxtpx:TrackPointExtension>
2328 </extensions>
2329 </trkpt>
2330 <trkpt lon="115.961745" lat="-31.9107276">
2331 <ele>-0.34</ele>
2332 <time>2008-11-13T09:17:06.000Z</time>
2333 <extensions>
2334 <gpxtpx:TrackPointExtension>
2335 <gpxtpx:hr>148</gpxtpx:hr>
2336 </gpxtpx:TrackPointExtension>
2337 </extensions>
2338 </trkpt>
2339 <trkpt lon="115.9617627" lat="-31.9104323">
2340 <ele>-1.79</ele>
2341 <time>2008-11-13T09:17:15.000Z</time>
2342 <extensions>
2343 <gpxtpx:TrackPointExtension>
2344 <gpxtpx:hr>148</gpxtpx:hr>
2345 </gpxtpx:TrackPointExtension>
2346 </extensions>
2347 </trkpt>
2348 <trkpt lon="115.9617577" lat="-31.9101914">
2349 <ele>-1.3</ele>
2350 <time>2008-11-13T09:17:22.000Z</time>
2351 <extensions>
2352 <gpxtpx:TrackPointExtension>
2353 <gpxtpx:hr>148</gpxtpx:hr>
2354 </gpxtpx:TrackPointExtension>
2355 </extensions>
2356 </trkpt>
2357 <trkpt lon="115.9617515" lat="-31.9099359">
2358 <ele>-1.3</ele>
2359 <time>2008-11-13T09:17:30.000Z</time>
2360 <extensions>
2361 <gpxtpx:TrackPointExtension>
2362 <gpxtpx:hr>147</gpxtpx:hr>
2363 </gpxtpx:TrackPointExtension>
2364 </extensions>
2365 </trkpt>
2366 <trkpt lon="115.9617371" lat="-31.9096528">
2367 <ele>-2.27</ele>
2368 <time>2008-11-13T09:17:39.000Z</time>
2369 <extensions>
2370 <gpxtpx:TrackPointExtension>
2371 <gpxtpx:hr>147</gpxtpx:hr>
2372 </gpxtpx:TrackPointExtension>
2373 </extensions>
2374 </trkpt>
2375 <trkpt lon="115.9617169" lat="-31.9093788">
2376 <ele>-2.75</ele>
2377 <time>2008-11-13T09:17:47.000Z</time>
2378 <extensions>
2379 <gpxtpx:TrackPointExtension>
2380 <gpxtpx:hr>146</gpxtpx:hr>
2381 </gpxtpx:TrackPointExtension>
2382 </extensions>
2383 </trkpt>
2384 <trkpt lon="115.9617241" lat="-31.9091695">
2385 <ele>-2.75</ele>
2386 <time>2008-11-13T09:17:53.000Z</time>
2387 <extensions>
2388 <gpxtpx:TrackPointExtension>
2389 <gpxtpx:hr>146</gpxtpx:hr>
2390 </gpxtpx:TrackPointExtension>
2391 </extensions>
2392 </trkpt>
2393 <trkpt lon="115.9617354" lat="-31.9088933">
2394 <ele>-1.3</ele>
2395 <time>2008-11-13T09:18:01.000Z</time>
2396 <extensions>
2397 <gpxtpx:TrackPointExtension>
2398 <gpxtpx:hr>146</gpxtpx:hr>
2399 </gpxtpx:TrackPointExtension>
2400 </extensions>
2401 </trkpt>
2402 <trkpt lon="115.9617567" lat="-31.9085767">
2403 <ele>-0.34</ele>
2404 <time>2008-11-13T09:18:10.000Z</time>
2405 <extensions>
2406 <gpxtpx:TrackPointExtension>
2407 <gpxtpx:hr>146</gpxtpx:hr>
2408 </gpxtpx:TrackPointExtension>
2409 </extensions>
2410 </trkpt>
2411 <trkpt lon="115.9617771" lat="-31.908336">
2412 <ele>0.62</ele>
2413 <time>2008-11-13T09:18:17.000Z</time>
2414 <extensions>
2415 <gpxtpx:TrackPointExtension>
2416 <gpxtpx:hr>146</gpxtpx:hr>
2417 </gpxtpx:TrackPointExtension>
2418 </extensions>
2419 </trkpt>
2420 <trkpt lon="115.9618133" lat="-31.9079719">
2421 <ele>0.14</ele>
2422 <time>2008-11-13T09:18:27.000Z</time>
2423 <extensions>
2424 <gpxtpx:TrackPointExtension>
2425 <gpxtpx:hr>148</gpxtpx:hr>
2426 </gpxtpx:TrackPointExtension>
2427 </extensions>
2428 </trkpt>
2429 <trkpt lon="115.9618522" lat="-31.9076877">
2430 <ele>0.62</ele>
2431 <time>2008-11-13T09:18:35.000Z</time>
2432 <extensions>
2433 <gpxtpx:TrackPointExtension>
2434 <gpxtpx:hr>148</gpxtpx:hr>
2435 </gpxtpx:TrackPointExtension>
2436 </extensions>
2437 </trkpt>
2438 <trkpt lon="115.9619056" lat="-31.9074069">
2439 <ele>1.58</ele>
2440 <time>2008-11-13T09:18:43.000Z</time>
2441 <extensions>
2442 <gpxtpx:TrackPointExtension>
2443 <gpxtpx:hr>149</gpxtpx:hr>
2444 </gpxtpx:TrackPointExtension>
2445 </extensions>
2446 </trkpt>
2447 <trkpt lon="115.9620019" lat="-31.9070001">
2448 <ele>3.02</ele>
2449 <time>2008-11-13T09:18:55.000Z</time>
2450 <extensions>
2451 <gpxtpx:TrackPointExtension>
2452 <gpxtpx:hr>148</gpxtpx:hr>
2453 </gpxtpx:TrackPointExtension>
2454 </extensions>
2455 </trkpt>
2456 <trkpt lon="115.9620769" lat="-31.9067309">
2457 <ele>3.02</ele>
2458 <time>2008-11-13T09:19:03.000Z</time>
2459 <extensions>
2460 <gpxtpx:TrackPointExtension>
2461 <gpxtpx:hr>148</gpxtpx:hr>
2462 </gpxtpx:TrackPointExtension>
2463 </extensions>
2464 </trkpt>
2465 <trkpt lon="115.9621757" lat="-31.9064305">
2466 <ele>2.54</ele>
2467 <time>2008-11-13T09:19:12.000Z</time>
2468 <extensions>
2469 <gpxtpx:TrackPointExtension>
2470 <gpxtpx:hr>148</gpxtpx:hr>
2471 </gpxtpx:TrackPointExtension>
2472 </extensions>
2473 </trkpt>
2474 <trkpt lon="115.9623009" lat="-31.9060642">
2475 <ele>1.58</ele>
2476 <time>2008-11-13T09:19:23.000Z</time>
2477 <extensions>
2478 <gpxtpx:TrackPointExtension>
2479 <gpxtpx:hr>148</gpxtpx:hr>
2480 </gpxtpx:TrackPointExtension>
2481 </extensions>
2482 </trkpt>
2483 <trkpt lon="115.9624242" lat="-31.9057002">
2484 <ele>0.62</ele>
2485 <time>2008-11-13T09:19:34.000Z</time>
2486 <extensions>
2487 <gpxtpx:TrackPointExtension>
2488 <gpxtpx:hr>148</gpxtpx:hr>
2489 </gpxtpx:TrackPointExtension>
2490 </extensions>
2491 </trkpt>
2492 <trkpt lon="115.9625332" lat="-31.9054084">
2493 <ele>0.14</ele>
2494 <time>2008-11-13T09:19:43.000Z</time>
2495 <extensions>
2496 <gpxtpx:TrackPointExtension>
2497 <gpxtpx:hr>147</gpxtpx:hr>
2498 </gpxtpx:TrackPointExtension>
2499 </extensions>
2500 </trkpt>
2501 <trkpt lon="115.9626806" lat="-31.9050611">
2502 <ele>-0.82</ele>
2503 <time>2008-11-13T09:19:54.000Z</time>
2504 <extensions>
2505 <gpxtpx:TrackPointExtension>
2506 <gpxtpx:hr>146</gpxtpx:hr>
2507 </gpxtpx:TrackPointExtension>
2508 </extensions>
2509 </trkpt>
2510 <trkpt lon="115.9628217" lat="-31.9047454">
2511 <ele>-0.34</ele>
2512 <time>2008-11-13T09:20:04.000Z</time>
2513 <extensions>
2514 <gpxtpx:TrackPointExtension>
2515 <gpxtpx:hr>146</gpxtpx:hr>
2516 </gpxtpx:TrackPointExtension>
2517 </extensions>
2518 </trkpt>
2519 <trkpt lon="115.9629053" lat="-31.9044551">
2520 <ele>-0.34</ele>
2521 <time>2008-11-13T09:20:13.000Z</time>
2522 <extensions>
2523 <gpxtpx:TrackPointExtension>
2524 <gpxtpx:hr>146</gpxtpx:hr>
2525 </gpxtpx:TrackPointExtension>
2526 </extensions>
2527 </trkpt>
2528 <trkpt lon="115.9629176" lat="-31.9042368">
2529 <ele>-0.34</ele>
2530 <time>2008-11-13T09:20:20.000Z</time>
2531 <extensions>
2532 <gpxtpx:TrackPointExtension>
2533 <gpxtpx:hr>146</gpxtpx:hr>
2534 </gpxtpx:TrackPointExtension>
2535 </extensions>
2536 </trkpt>
2537 <trkpt lon="115.9629011" lat="-31.9039795">
2538 <ele>-1.3</ele>
2539 <time>2008-11-13T09:20:28.000Z</time>
2540 <extensions>
2541 <gpxtpx:TrackPointExtension>
2542 <gpxtpx:hr>145</gpxtpx:hr>
2543 </gpxtpx:TrackPointExtension>
2544 </extensions>
2545 </trkpt>
2546 <trkpt lon="115.9628478" lat="-31.9037691">
2547 <ele>-2.75</ele>
2548 <time>2008-11-13T09:20:34.000Z</time>
2549 <extensions>
2550 <gpxtpx:TrackPointExtension>
2551 <gpxtpx:hr>143</gpxtpx:hr>
2552 </gpxtpx:TrackPointExtension>
2553 </extensions>
2554 </trkpt>
2555 <trkpt lon="115.9627939" lat="-31.903506">
2556 <ele>-4.67</ele>
2557 <time>2008-11-13T09:20:42.000Z</time>
2558 <extensions>
2559 <gpxtpx:TrackPointExtension>
2560 <gpxtpx:hr>143</gpxtpx:hr>
2561 </gpxtpx:TrackPointExtension>
2562 </extensions>
2563 </trkpt>
2564 <trkpt lon="115.9627203" lat="-31.9032521">
2565 <ele>-6.59</ele>
2566 <time>2008-11-13T09:20:50.000Z</time>
2567 <extensions>
2568 <gpxtpx:TrackPointExtension>
2569 <gpxtpx:hr>144</gpxtpx:hr>
2570 </gpxtpx:TrackPointExtension>
2571 </extensions>
2572 </trkpt>
2573 <trkpt lon="115.9626472" lat="-31.9030315">
2574 <ele>-6.59</ele>
2575 <time>2008-11-13T09:20:57.000Z</time>
2576 <extensions>
2577 <gpxtpx:TrackPointExtension>
2578 <gpxtpx:hr>144</gpxtpx:hr>
2579 </gpxtpx:TrackPointExtension>
2580 </extensions>
2581 </trkpt>
2582 <trkpt lon="115.9625696" lat="-31.9028013">
2583 <ele>-7.55</ele>
2584 <time>2008-11-13T09:21:04.000Z</time>
2585 <extensions>
2586 <gpxtpx:TrackPointExtension>
2587 <gpxtpx:hr>146</gpxtpx:hr>
2588 </gpxtpx:TrackPointExtension>
2589 </extensions>
2590 </trkpt>
2591 <trkpt lon="115.9624887" lat="-31.9025705">
2592 <ele>-7.07</ele>
2593 <time>2008-11-13T09:21:11.000Z</time>
2594 <extensions>
2595 <gpxtpx:TrackPointExtension>
2596 <gpxtpx:hr>147</gpxtpx:hr>
2597 </gpxtpx:TrackPointExtension>
2598 </extensions>
2599 </trkpt>
2600 <trkpt lon="115.9623598" lat="-31.9022629">
2601 <ele>-5.15</ele>
2602 <time>2008-11-13T09:21:21.000Z</time>
2603 <extensions>
2604 <gpxtpx:TrackPointExtension>
2605 <gpxtpx:hr>147</gpxtpx:hr>
2606 </gpxtpx:TrackPointExtension>
2607 </extensions>
2608 </trkpt>
2609 <trkpt lon="115.9622763" lat="-31.9020726">
2610 <ele>-4.67</ele>
2611 <time>2008-11-13T09:21:27.000Z</time>
2612 <extensions>
2613 <gpxtpx:TrackPointExtension>
2614 <gpxtpx:hr>147</gpxtpx:hr>
2615 </gpxtpx:TrackPointExtension>
2616 </extensions>
2617 </trkpt>
2618 <trkpt lon="115.9621836" lat="-31.9018727">
2619 <ele>-5.15</ele>
2620 <time>2008-11-13T09:21:33.000Z</time>
2621 <extensions>
2622 <gpxtpx:TrackPointExtension>
2623 <gpxtpx:hr>148</gpxtpx:hr>
2624 </gpxtpx:TrackPointExtension>
2625 </extensions>
2626 </trkpt>
2627 <trkpt lon="115.9620997" lat="-31.9017226">
2628 <ele>-4.67</ele>
2629 <time>2008-11-13T09:21:38.000Z</time>
2630 <extensions>
2631 <gpxtpx:TrackPointExtension>
2632 <gpxtpx:hr>148</gpxtpx:hr>
2633 </gpxtpx:TrackPointExtension>
2634 </extensions>
2635 </trkpt>
2636 <trkpt lon="115.9619822" lat="-31.9015235">
2637 <ele>-6.11</ele>
2638 <time>2008-11-13T09:21:44.000Z</time>
2639 <extensions>
2640 <gpxtpx:TrackPointExtension>
2641 <gpxtpx:hr>150</gpxtpx:hr>
2642 </gpxtpx:TrackPointExtension>
2643 </extensions>
2644 </trkpt>
2645 <trkpt lon="115.9618594" lat="-31.9013386">
2646 <ele>-7.07</ele>
2647 <time>2008-11-13T09:21:50.000Z</time>
2648 <extensions>
2649 <gpxtpx:TrackPointExtension>
2650 <gpxtpx:hr>150</gpxtpx:hr>
2651 </gpxtpx:TrackPointExtension>
2652 </extensions>
2653 </trkpt>
2654 <trkpt lon="115.961688" lat="-31.9010983">
2655 <ele>-6.59</ele>
2656 <time>2008-11-13T09:21:58.000Z</time>
2657 <extensions>
2658 <gpxtpx:TrackPointExtension>
2659 <gpxtpx:hr>150</gpxtpx:hr>
2660 </gpxtpx:TrackPointExtension>
2661 </extensions>
2662 </trkpt>
2663 <trkpt lon="115.9615419" lat="-31.9009294">
2664 <ele>-6.11</ele>
2665 <time>2008-11-13T09:22:04.000Z</time>
2666 <extensions>
2667 <gpxtpx:TrackPointExtension>
2668 <gpxtpx:hr>151</gpxtpx:hr>
2669 </gpxtpx:TrackPointExtension>
2670 </extensions>
2671 </trkpt>
2672 <trkpt lon="115.9613402" lat="-31.9007025">
2673 <ele>-6.11</ele>
2674 <time>2008-11-13T09:22:12.000Z</time>
2675 <extensions>
2676 <gpxtpx:TrackPointExtension>
2677 <gpxtpx:hr>149</gpxtpx:hr>
2678 </gpxtpx:TrackPointExtension>
2679 </extensions>
2680 </trkpt>
2681 <trkpt lon="115.9611172" lat="-31.900456">
2682 <ele>-7.07</ele>
2683 <time>2008-11-13T09:22:21.000Z</time>
2684 <extensions>
2685 <gpxtpx:TrackPointExtension>
2686 <gpxtpx:hr>149</gpxtpx:hr>
2687 </gpxtpx:TrackPointExtension>
2688 </extensions>
2689 </trkpt>
2690 <trkpt lon="115.9609898" lat="-31.9003301">
2691 <ele>-7.55</ele>
2692 <time>2008-11-13T09:22:27.000Z</time>
2693 <extensions>
2694 <gpxtpx:TrackPointExtension>
2695 <gpxtpx:hr>148</gpxtpx:hr>
2696 </gpxtpx:TrackPointExtension>
2697 </extensions>
2698 </trkpt>
2699 <trkpt lon="115.9609367" lat="-31.9002343">
2700 <ele>-9.0</ele>
2701 <time>2008-11-13T09:22:31.000Z</time>
2702 <extensions>
2703 <gpxtpx:TrackPointExtension>
2704 <gpxtpx:hr>148</gpxtpx:hr>
2705 </gpxtpx:TrackPointExtension>
2706 </extensions>
2707 </trkpt>
2708 <trkpt lon="115.9607923" lat="-31.9000541">
2709 <ele>-9.96</ele>
2710 <time>2008-11-13T09:22:37.000Z</time>
2711 <extensions>
2712 <gpxtpx:TrackPointExtension>
2713 <gpxtpx:hr>147</gpxtpx:hr>
2714 </gpxtpx:TrackPointExtension>
2715 </extensions>
2716 </trkpt>
2717 <trkpt lon="115.9606219" lat="-31.8998497">
2718 <ele>-11.4</ele>
2719 <time>2008-11-13T09:22:44.000Z</time>
2720 <extensions>
2721 <gpxtpx:TrackPointExtension>
2722 <gpxtpx:hr>146</gpxtpx:hr>
2723 </gpxtpx:TrackPointExtension>
2724 </extensions>
2725 </trkpt>
2726 <trkpt lon="115.9604878" lat="-31.8996784">
2727 <ele>-10.92</ele>
2728 <time>2008-11-13T09:22:50.000Z</time>
2729 <extensions>
2730 <gpxtpx:TrackPointExtension>
2731 <gpxtpx:hr>147</gpxtpx:hr>
2732 </gpxtpx:TrackPointExtension>
2733 </extensions>
2734 </trkpt>
2735 <trkpt lon="115.9603557" lat="-31.8995505">
2736 <ele>-10.92</ele>
2737 <time>2008-11-13T09:22:56.000Z</time>
2738 <extensions>
2739 <gpxtpx:TrackPointExtension>
2740 <gpxtpx:hr>147</gpxtpx:hr>
2741 </gpxtpx:TrackPointExtension>
2742 </extensions>
2743 </trkpt>
2744 <trkpt lon="115.9602769" lat="-31.8994513">
2745 <ele>-11.88</ele>
2746 <time>2008-11-13T09:23:00.000Z</time>
2747 <extensions>
2748 <gpxtpx:TrackPointExtension>
2749 <gpxtpx:hr>147</gpxtpx:hr>
2750 </gpxtpx:TrackPointExtension>
2751 </extensions>
2752 </trkpt>
2753 <trkpt lon="115.9601231" lat="-31.8992836">
2754 <ele>-10.92</ele>
2755 <time>2008-11-13T09:23:06.000Z</time>
2756 <extensions>
2757 <gpxtpx:TrackPointExtension>
2758 <gpxtpx:hr>147</gpxtpx:hr>
2759 </gpxtpx:TrackPointExtension>
2760 </extensions>
2761 </trkpt>
2762 <trkpt lon="115.9599322" lat="-31.8990872">
2763 <ele>-11.88</ele>
2764 <time>2008-11-13T09:23:13.000Z</time>
2765 <extensions>
2766 <gpxtpx:TrackPointExtension>
2767 <gpxtpx:hr>146</gpxtpx:hr>
2768 </gpxtpx:TrackPointExtension>
2769 </extensions>
2770 </trkpt>
2771 <trkpt lon="115.959732" lat="-31.8988978">
2772 <ele>-12.36</ele>
2773 <time>2008-11-13T09:23:20.000Z</time>
2774 <extensions>
2775 <gpxtpx:TrackPointExtension>
2776 <gpxtpx:hr>146</gpxtpx:hr>
2777 </gpxtpx:TrackPointExtension>
2778 </extensions>
2779 </trkpt>
2780 <trkpt lon="115.9595397" lat="-31.8987186">
2781 <ele>-10.44</ele>
2782 <time>2008-11-13T09:23:27.000Z</time>
2783 <extensions>
2784 <gpxtpx:TrackPointExtension>
2785 <gpxtpx:hr>146</gpxtpx:hr>
2786 </gpxtpx:TrackPointExtension>
2787 </extensions>
2788 </trkpt>
2789 <trkpt lon="115.9593668" lat="-31.8985715">
2790 <ele>-8.51</ele>
2791 <time>2008-11-13T09:23:33.000Z</time>
2792 <extensions>
2793 <gpxtpx:TrackPointExtension>
2794 <gpxtpx:hr>147</gpxtpx:hr>
2795 </gpxtpx:TrackPointExtension>
2796 </extensions>
2797 </trkpt>
2798 <trkpt lon="115.9591144" lat="-31.8983996">
2799 <ele>-6.59</ele>
2800 <time>2008-11-13T09:23:41.000Z</time>
2801 <extensions>
2802 <gpxtpx:TrackPointExtension>
2803 <gpxtpx:hr>147</gpxtpx:hr>
2804 </gpxtpx:TrackPointExtension>
2805 </extensions>
2806 </trkpt>
2807 <trkpt lon="115.9588611" lat="-31.8982811">
2808 <ele>-7.55</ele>
2809 <time>2008-11-13T09:23:48.000Z</time>
2810 <extensions>
2811 <gpxtpx:TrackPointExtension>
2812 <gpxtpx:hr>148</gpxtpx:hr>
2813 </gpxtpx:TrackPointExtension>
2814 </extensions>
2815 </trkpt>
2816 <trkpt lon="115.9585488" lat="-31.8981156">
2817 <ele>-6.59</ele>
2818 <time>2008-11-13T09:23:57.000Z</time>
2819 <extensions>
2820 <gpxtpx:TrackPointExtension>
2821 <gpxtpx:hr>146</gpxtpx:hr>
2822 </gpxtpx:TrackPointExtension>
2823 </extensions>
2824 </trkpt>
2825 <trkpt lon="115.958282" lat="-31.8978934">
2826 <ele>-5.63</ele>
2827 <time>2008-11-13T09:24:06.000Z</time>
2828 <extensions>
2829 <gpxtpx:TrackPointExtension>
2830 <gpxtpx:hr>147</gpxtpx:hr>
2831 </gpxtpx:TrackPointExtension>
2832 </extensions>
2833 </trkpt>
2834 <trkpt lon="115.9580918" lat="-31.8976616">
2835 <ele>-6.11</ele>
2836 <time>2008-11-13T09:24:14.000Z</time>
2837 <extensions>
2838 <gpxtpx:TrackPointExtension>
2839 <gpxtpx:hr>147</gpxtpx:hr>
2840 </gpxtpx:TrackPointExtension>
2841 </extensions>
2842 </trkpt>
2843 <trkpt lon="115.9579977" lat="-31.8975053">
2844 <ele>-5.15</ele>
2845 <time>2008-11-13T09:24:19.000Z</time>
2846 <extensions>
2847 <gpxtpx:TrackPointExtension>
2848 <gpxtpx:hr>147</gpxtpx:hr>
2849 </gpxtpx:TrackPointExtension>
2850 </extensions>
2851 </trkpt>
2852 <trkpt lon="115.9579044" lat="-31.8972904">
2853 <ele>-4.67</ele>
2854 <time>2008-11-13T09:24:26.000Z</time>
2855 <extensions>
2856 <gpxtpx:TrackPointExtension>
2857 <gpxtpx:hr>151</gpxtpx:hr>
2858 </gpxtpx:TrackPointExtension>
2859 </extensions>
2860 </trkpt>
2861 <trkpt lon="115.9578615" lat="-31.8971272">
2862 <ele>-4.67</ele>
2863 <time>2008-11-13T09:24:31.000Z</time>
2864 <extensions>
2865 <gpxtpx:TrackPointExtension>
2866 <gpxtpx:hr>150</gpxtpx:hr>
2867 </gpxtpx:TrackPointExtension>
2868 </extensions>
2869 </trkpt>
2870 <trkpt lon="115.9578407" lat="-31.8968951">
2871 <ele>-3.23</ele>
2872 <time>2008-11-13T09:24:38.000Z</time>
2873 <extensions>
2874 <gpxtpx:TrackPointExtension>
2875 <gpxtpx:hr>149</gpxtpx:hr>
2876 </gpxtpx:TrackPointExtension>
2877 </extensions>
2878 </trkpt>
2879 <trkpt lon="115.9578506" lat="-31.8965839">
2880 <ele>-2.27</ele>
2881 <time>2008-11-13T09:24:47.000Z</time>
2882 <extensions>
2883 <gpxtpx:TrackPointExtension>
2884 <gpxtpx:hr>148</gpxtpx:hr>
2885 </gpxtpx:TrackPointExtension>
2886 </extensions>
2887 </trkpt>
2888 <trkpt lon="115.9578801" lat="-31.8963905">
2889 <ele>-1.3</ele>
2890 <time>2008-11-13T09:24:53.000Z</time>
2891 <extensions>
2892 <gpxtpx:TrackPointExtension>
2893 <gpxtpx:hr>147</gpxtpx:hr>
2894 </gpxtpx:TrackPointExtension>
2895 </extensions>
2896 </trkpt>
2897 <trkpt lon="115.9579061" lat="-31.8962622">
2898 <ele>0.14</ele>
2899 <time>2008-11-13T09:25:00.000Z</time>
2900 <extensions>
2901 <gpxtpx:TrackPointExtension>
2902 <gpxtpx:hr>143</gpxtpx:hr>
2903 </gpxtpx:TrackPointExtension>
2904 </extensions>
2905 </trkpt>
2906 <trkpt lon="115.9579154" lat="-31.8962066">
2907 <ele>0.14</ele>
2908 <time>2008-11-13T09:25:05.000Z</time>
2909 <extensions>
2910 <gpxtpx:TrackPointExtension>
2911 <gpxtpx:hr>137</gpxtpx:hr>
2912 </gpxtpx:TrackPointExtension>
2913 </extensions>
2914 </trkpt>
2915 <trkpt lon="115.9579165" lat="-31.89619">
2916 <ele>0.14</ele>
2917 <time>2008-11-13T09:25:07.000Z</time>
2918 <extensions>
2919 <gpxtpx:TrackPointExtension>
2920 <gpxtpx:hr>132</gpxtpx:hr>
2921 </gpxtpx:TrackPointExtension>
2922 </extensions>
2923 </trkpt>
2924 <trkpt lon="115.9579136" lat="-31.8961654">
2925 <ele>1.1</ele>
2926 <time>2008-11-13T09:25:11.000Z</time>
2927 <extensions>
2928 <gpxtpx:TrackPointExtension>
2929 <gpxtpx:hr>126</gpxtpx:hr>
2930 </gpxtpx:TrackPointExtension>
2931 </extensions>
2932 </trkpt>
2933 <trkpt lon="115.9579104" lat="-31.8961248">
2934 <ele>1.1</ele>
2935 <time>2008-11-13T09:25:16.000Z</time>
2936 <extensions>
2937 <gpxtpx:TrackPointExtension>
2938 <gpxtpx:hr>120</gpxtpx:hr>
2939 </gpxtpx:TrackPointExtension>
2940 </extensions>
2941 </trkpt>
2942 <trkpt lon="115.9579134" lat="-31.8961042">
2943 <ele>1.1</ele>
2944 <time>2008-11-13T09:25:18.000Z</time>
2945 <extensions>
2946 <gpxtpx:TrackPointExtension>
2947 <gpxtpx:hr>116</gpxtpx:hr>
2948 </gpxtpx:TrackPointExtension>
2949 </extensions>
2950 </trkpt>
2951 <trkpt lon="115.9579572" lat="-31.8959907">
2952 <ele>1.58</ele>
2953 <time>2008-11-13T09:25:27.000Z</time>
2954 <extensions>
2955 <gpxtpx:TrackPointExtension>
2956 <gpxtpx:hr>113</gpxtpx:hr>
2957 </gpxtpx:TrackPointExtension>
2958 </extensions>
2959 </trkpt>
2960 <trkpt lon="115.9580313" lat="-31.8958486">
2961 <ele>2.06</ele>
2962 <time>2008-11-13T09:25:39.000Z</time>
2963 <extensions>
2964 <gpxtpx:TrackPointExtension>
2965 <gpxtpx:hr>107</gpxtpx:hr>
2966 </gpxtpx:TrackPointExtension>
2967 </extensions>
2968 </trkpt>
2969 <trkpt lon="115.9580992" lat="-31.8957106">
2970 <ele>3.02</ele>
2971 <time>2008-11-13T09:25:49.000Z</time>
2972 <extensions>
2973 <gpxtpx:TrackPointExtension>
2974 <gpxtpx:hr>105</gpxtpx:hr>
2975 </gpxtpx:TrackPointExtension>
2976 </extensions>
2977 </trkpt>
2978 <trkpt lon="115.9582319" lat="-31.895486">
2979 <ele>3.5</ele>
2980 <time>2008-11-13T09:26:00.000Z</time>
2981 <extensions>
2982 <gpxtpx:TrackPointExtension>
2983 <gpxtpx:hr>106</gpxtpx:hr>
2984 </gpxtpx:TrackPointExtension>
2985 </extensions>
2986 </trkpt>
2987 <trkpt lon="115.958358" lat="-31.8953293">
2988 <ele>5.42</ele>
2989 <time>2008-11-13T09:26:06.000Z</time>
2990 <extensions>
2991 <gpxtpx:TrackPointExtension>
2992 <gpxtpx:hr>111</gpxtpx:hr>
2993 </gpxtpx:TrackPointExtension>
2994 </extensions>
2995 </trkpt>
2996 <trkpt lon="115.9584297" lat="-31.8952509">
2997 <ele>4.46</ele>
2998 <time>2008-11-13T09:26:09.000Z</time>
2999 <extensions>
3000 <gpxtpx:TrackPointExtension>
3001 <gpxtpx:hr>117</gpxtpx:hr>
3002 </gpxtpx:TrackPointExtension>
3003 </extensions>
3004 </trkpt>
3005 <trkpt lon="115.9584554" lat="-31.895224">
3006 <ele>4.46</ele>
3007 <time>2008-11-13T09:26:10.000Z</time>
3008 <extensions>
3009 <gpxtpx:TrackPointExtension>
3010 <gpxtpx:hr>122</gpxtpx:hr>
3011 </gpxtpx:TrackPointExtension>
3012 </extensions>
3013 </trkpt>
3014 <trkpt lon="115.9584816" lat="-31.8951975">
3015 <ele>4.94</ele>
3016 <time>2008-11-13T09:26:11.000Z</time>
3017 <extensions>
3018 <gpxtpx:TrackPointExtension>
3019 <gpxtpx:hr>122</gpxtpx:hr>
3020 </gpxtpx:TrackPointExtension>
3021 </extensions>
3022 </trkpt>
3023 <trkpt lon="115.9587194" lat="-31.8950051">
3024 <ele>3.02</ele>
3025 <time>2008-11-13T09:26:19.000Z</time>
3026 <extensions>
3027 <gpxtpx:TrackPointExtension>
3028 <gpxtpx:hr>126</gpxtpx:hr>
3029 </gpxtpx:TrackPointExtension>
3030 </extensions>
3031 </trkpt>
3032 <trkpt lon="115.9590087" lat="-31.8948987">
3033 <ele>4.94</ele>
3034 <time>2008-11-13T09:26:27.000Z</time>
3035 <extensions>
3036 <gpxtpx:TrackPointExtension>
3037 <gpxtpx:hr>129</gpxtpx:hr>
3038 </gpxtpx:TrackPointExtension>
3039 </extensions>
3040 </trkpt>
3041 <trkpt lon="115.9593646" lat="-31.8948524">
3042 <ele>6.39</ele>
3043 <time>2008-11-13T09:26:36.000Z</time>
3044 <extensions>
3045 <gpxtpx:TrackPointExtension>
3046 <gpxtpx:hr>133</gpxtpx:hr>
3047 </gpxtpx:TrackPointExtension>
3048 </extensions>
3049 </trkpt>
3050 <trkpt lon="115.9596019" lat="-31.8948579">
3051 <ele>6.87</ele>
3052 <time>2008-11-13T09:26:42.000Z</time>
3053 <extensions>
3054 <gpxtpx:TrackPointExtension>
3055 <gpxtpx:hr>138</gpxtpx:hr>
3056 </gpxtpx:TrackPointExtension>
3057 </extensions>
3058 </trkpt>
3059 <trkpt lon="115.9599082" lat="-31.8948929">
3060 <ele>5.42</ele>
3061 <time>2008-11-13T09:26:50.000Z</time>
3062 <extensions>
3063 <gpxtpx:TrackPointExtension>
3064 <gpxtpx:hr>143</gpxtpx:hr>
3065 </gpxtpx:TrackPointExtension>
3066 </extensions>
3067 </trkpt>
3068 <trkpt lon="115.9603252" lat="-31.8949862">
3069 <ele>3.02</ele>
3070 <time>2008-11-13T09:27:01.000Z</time>
3071 <extensions>
3072 <gpxtpx:TrackPointExtension>
3073 <gpxtpx:hr>145</gpxtpx:hr>
3074 </gpxtpx:TrackPointExtension>
3075 </extensions>
3076 </trkpt>
3077 <trkpt lon="115.9607313" lat="-31.8950964">
3078 <ele>2.54</ele>
3079 <time>2008-11-13T09:27:12.000Z</time>
3080 <extensions>
3081 <gpxtpx:TrackPointExtension>
3082 <gpxtpx:hr>149</gpxtpx:hr>
3083 </gpxtpx:TrackPointExtension>
3084 </extensions>
3085 </trkpt>
3086 <trkpt lon="115.9611275" lat="-31.8952101">
3087 <ele>1.58</ele>
3088 <time>2008-11-13T09:27:23.000Z</time>
3089 <extensions>
3090 <gpxtpx:TrackPointExtension>
3091 <gpxtpx:hr>150</gpxtpx:hr>
3092 </gpxtpx:TrackPointExtension>
3093 </extensions>
3094 </trkpt>
3095 <trkpt lon="115.9614154" lat="-31.8952857">
3096 <ele>2.54</ele>
3097 <time>2008-11-13T09:27:31.000Z</time>
3098 <extensions>
3099 <gpxtpx:TrackPointExtension>
3100 <gpxtpx:hr>149</gpxtpx:hr>
3101 </gpxtpx:TrackPointExtension>
3102 </extensions>
3103 </trkpt>
3104 <trkpt lon="115.9617273" lat="-31.8953589">
3105 <ele>3.5</ele>
3106 <time>2008-11-13T09:27:40.000Z</time>
3107 <extensions>
3108 <gpxtpx:TrackPointExtension>
3109 <gpxtpx:hr>148</gpxtpx:hr>
3110 </gpxtpx:TrackPointExtension>
3111 </extensions>
3112 </trkpt>
3113 <trkpt lon="115.9619746" lat="-31.8954042">
3114 <ele>6.39</ele>
3115 <time>2008-11-13T09:27:47.000Z</time>
3116 <extensions>
3117 <gpxtpx:TrackPointExtension>
3118 <gpxtpx:hr>148</gpxtpx:hr>
3119 </gpxtpx:TrackPointExtension>
3120 </extensions>
3121 </trkpt>
3122 <trkpt lon="115.9623427" lat="-31.8954504">
3123 <ele>6.39</ele>
3124 <time>2008-11-13T09:27:57.000Z</time>
3125 <extensions>
3126 <gpxtpx:TrackPointExtension>
3127 <gpxtpx:hr>148</gpxtpx:hr>
3128 </gpxtpx:TrackPointExtension>
3129 </extensions>
3130 </trkpt>
3131 <trkpt lon="115.9627193" lat="-31.8954764">
3132 <ele>7.35</ele>
3133 <time>2008-11-13T09:28:07.000Z</time>
3134 <extensions>
3135 <gpxtpx:TrackPointExtension>
3136 <gpxtpx:hr>148</gpxtpx:hr>
3137 </gpxtpx:TrackPointExtension>
3138 </extensions>
3139 </trkpt>
3140 <trkpt lon="115.9631431" lat="-31.8955003">
3141 <ele>7.83</ele>
3142 <time>2008-11-13T09:28:18.000Z</time>
3143 <extensions>
3144 <gpxtpx:TrackPointExtension>
3145 <gpxtpx:hr>147</gpxtpx:hr>
3146 </gpxtpx:TrackPointExtension>
3147 </extensions>
3148 </trkpt>
3149 <trkpt lon="115.9635267" lat="-31.895522">
3150 <ele>7.83</ele>
3151 <time>2008-11-13T09:28:28.000Z</time>
3152 <extensions>
3153 <gpxtpx:TrackPointExtension>
3154 <gpxtpx:hr>150</gpxtpx:hr>
3155 </gpxtpx:TrackPointExtension>
3156 </extensions>
3157 </trkpt>
3158 <trkpt lon="115.9638325" lat="-31.8955308">
3159 <ele>6.39</ele>
3160 <time>2008-11-13T09:28:36.000Z</time>
3161 <extensions>
3162 <gpxtpx:TrackPointExtension>
3163 <gpxtpx:hr>148</gpxtpx:hr>
3164 </gpxtpx:TrackPointExtension>
3165 </extensions>
3166 </trkpt>
3167 <trkpt lon="115.9641418" lat="-31.8955343">
3168 <ele>4.46</ele>
3169 <time>2008-11-13T09:28:44.000Z</time>
3170 <extensions>
3171 <gpxtpx:TrackPointExtension>
3172 <gpxtpx:hr>148</gpxtpx:hr>
3173 </gpxtpx:TrackPointExtension>
3174 </extensions>
3175 </trkpt>
3176 <trkpt lon="115.9645215" lat="-31.8955341">
3177 <ele>4.94</ele>
3178 <time>2008-11-13T09:28:54.000Z</time>
3179 <extensions>
3180 <gpxtpx:TrackPointExtension>
3181 <gpxtpx:hr>148</gpxtpx:hr>
3182 </gpxtpx:TrackPointExtension>
3183 </extensions>
3184 </trkpt>
3185 <trkpt lon="115.9648541" lat="-31.8955297">
3186 <ele>5.42</ele>
3187 <time>2008-11-13T09:29:03.000Z</time>
3188 <extensions>
3189 <gpxtpx:TrackPointExtension>
3190 <gpxtpx:hr>147</gpxtpx:hr>
3191 </gpxtpx:TrackPointExtension>
3192 </extensions>
3193 </trkpt>
3194 <trkpt lon="115.965189" lat="-31.8955182">
3195 <ele>4.94</ele>
3196 <time>2008-11-13T09:29:12.000Z</time>
3197 <extensions>
3198 <gpxtpx:TrackPointExtension>
3199 <gpxtpx:hr>147</gpxtpx:hr>
3200 </gpxtpx:TrackPointExtension>
3201 </extensions>
3202 </trkpt>
3203 <trkpt lon="115.9654886" lat="-31.8955065">
3204 <ele>5.91</ele>
3205 <time>2008-11-13T09:29:20.000Z</time>
3206 <extensions>
3207 <gpxtpx:TrackPointExtension>
3208 <gpxtpx:hr>145</gpxtpx:hr>
3209 </gpxtpx:TrackPointExtension>
3210 </extensions>
3211 </trkpt>
3212 <trkpt lon="115.9657554" lat="-31.8954858">
3213 <ele>7.35</ele>
3214 <time>2008-11-13T09:29:27.000Z</time>
3215 <extensions>
3216 <gpxtpx:TrackPointExtension>
3217 <gpxtpx:hr>145</gpxtpx:hr>
3218 </gpxtpx:TrackPointExtension>
3219 </extensions>
3220 </trkpt>
3221 <trkpt lon="115.9661377" lat="-31.8954352">
3222 <ele>6.87</ele>
3223 <time>2008-11-13T09:29:37.000Z</time>
3224 <extensions>
3225 <gpxtpx:TrackPointExtension>
3226 <gpxtpx:hr>146</gpxtpx:hr>
3227 </gpxtpx:TrackPointExtension>
3228 </extensions>
3229 </trkpt>
3230 <trkpt lon="115.9664732" lat="-31.8953738">
3231 <ele>6.87</ele>
3232 <time>2008-11-13T09:29:46.000Z</time>
3233 <extensions>
3234 <gpxtpx:TrackPointExtension>
3235 <gpxtpx:hr>146</gpxtpx:hr>
3236 </gpxtpx:TrackPointExtension>
3237 </extensions>
3238 </trkpt>
3239 <trkpt lon="115.966807" lat="-31.8953133">
3240 <ele>7.35</ele>
3241 <time>2008-11-13T09:29:55.000Z</time>
3242 <extensions>
3243 <gpxtpx:TrackPointExtension>
3244 <gpxtpx:hr>146</gpxtpx:hr>
3245 </gpxtpx:TrackPointExtension>
3246 </extensions>
3247 </trkpt>
3248 <trkpt lon="115.9671426" lat="-31.8952526">
3249 <ele>7.83</ele>
3250 <time>2008-11-13T09:30:04.000Z</time>
3251 <extensions>
3252 <gpxtpx:TrackPointExtension>
3253 <gpxtpx:hr>147</gpxtpx:hr>
3254 </gpxtpx:TrackPointExtension>
3255 </extensions>
3256 </trkpt>
3257 <trkpt lon="115.9675047" lat="-31.8951867">
3258 <ele>9.75</ele>
3259 <time>2008-11-13T09:30:14.000Z</time>
3260 <extensions>
3261 <gpxtpx:TrackPointExtension>
3262 <gpxtpx:hr>147</gpxtpx:hr>
3263 </gpxtpx:TrackPointExtension>
3264 </extensions>
3265 </trkpt>
3266 <trkpt lon="115.9678305" lat="-31.8951215">
3267 <ele>9.75</ele>
3268 <time>2008-11-13T09:30:23.000Z</time>
3269 <extensions>
3270 <gpxtpx:TrackPointExtension>
3271 <gpxtpx:hr>147</gpxtpx:hr>
3272 </gpxtpx:TrackPointExtension>
3273 </extensions>
3274 </trkpt>
3275 <trkpt lon="115.9682122" lat="-31.8950514">
3276 <ele>10.71</ele>
3277 <time>2008-11-13T09:30:33.000Z</time>
3278 <extensions>
3279 <gpxtpx:TrackPointExtension>
3280 <gpxtpx:hr>147</gpxtpx:hr>
3281 </gpxtpx:TrackPointExtension>
3282 </extensions>
3283 </trkpt>
3284 <trkpt lon="115.9685717" lat="-31.8949816">
3285 <ele>13.6</ele>
3286 <time>2008-11-13T09:30:43.000Z</time>
3287 <extensions>
3288 <gpxtpx:TrackPointExtension>
3289 <gpxtpx:hr>146</gpxtpx:hr>
3290 </gpxtpx:TrackPointExtension>
3291 </extensions>
3292 </trkpt>
3293 <trkpt lon="115.9687755" lat="-31.8949369">
3294 <ele>14.56</ele>
3295 <time>2008-11-13T09:30:49.000Z</time>
3296 <extensions>
3297 <gpxtpx:TrackPointExtension>
3298 <gpxtpx:hr>145</gpxtpx:hr>
3299 </gpxtpx:TrackPointExtension>
3300 </extensions>
3301 </trkpt>
3302 <trkpt lon="115.9691119" lat="-31.8948691">
3303 <ele>15.52</ele>
3304 <time>2008-11-13T09:30:58.000Z</time>
3305 <extensions>
3306 <gpxtpx:TrackPointExtension>
3307 <gpxtpx:hr>145</gpxtpx:hr>
3308 </gpxtpx:TrackPointExtension>
3309 </extensions>
3310 </trkpt>
3311 <trkpt lon="115.9693788" lat="-31.8948196">
3312 <ele>16.48</ele>
3313 <time>2008-11-13T09:31:05.000Z</time>
3314 <extensions>
3315 <gpxtpx:TrackPointExtension>
3316 <gpxtpx:hr>145</gpxtpx:hr>
3317 </gpxtpx:TrackPointExtension>
3318 </extensions>
3319 </trkpt>
3320 <trkpt lon="115.9697965" lat="-31.8947371">
3321 <ele>17.44</ele>
3322 <time>2008-11-13T09:31:16.000Z</time>
3323 <extensions>
3324 <gpxtpx:TrackPointExtension>
3325 <gpxtpx:hr>146</gpxtpx:hr>
3326 </gpxtpx:TrackPointExtension>
3327 </extensions>
3328 </trkpt>
3329 <trkpt lon="115.970137" lat="-31.8946682">
3330 <ele>18.4</ele>
3331 <time>2008-11-13T09:31:25.000Z</time>
3332 <extensions>
3333 <gpxtpx:TrackPointExtension>
3334 <gpxtpx:hr>148</gpxtpx:hr>
3335 </gpxtpx:TrackPointExtension>
3336 </extensions>
3337 </trkpt>
3338 <trkpt lon="115.9705113" lat="-31.8945894">
3339 <ele>19.84</ele>
3340 <time>2008-11-13T09:31:35.000Z</time>
3341 <extensions>
3342 <gpxtpx:TrackPointExtension>
3343 <gpxtpx:hr>147</gpxtpx:hr>
3344 </gpxtpx:TrackPointExtension>
3345 </extensions>
3346 </trkpt>
3347 <trkpt lon="115.9708531" lat="-31.8945185">
3348 <ele>19.36</ele>
3349 <time>2008-11-13T09:31:44.000Z</time>
3350 <extensions>
3351 <gpxtpx:TrackPointExtension>
3352 <gpxtpx:hr>147</gpxtpx:hr>
3353 </gpxtpx:TrackPointExtension>
3354 </extensions>
3355 </trkpt>
3356 <trkpt lon="115.9711876" lat="-31.8944683">
3357 <ele>19.36</ele>
3358 <time>2008-11-13T09:31:53.000Z</time>
3359 <extensions>
3360 <gpxtpx:TrackPointExtension>
3361 <gpxtpx:hr>147</gpxtpx:hr>
3362 </gpxtpx:TrackPointExtension>
3363 </extensions>
3364 </trkpt>
3365 <trkpt lon="115.9715648" lat="-31.8944142">
3366 <ele>19.84</ele>
3367 <time>2008-11-13T09:32:03.000Z</time>
3368 <extensions>
3369 <gpxtpx:TrackPointExtension>
3370 <gpxtpx:hr>146</gpxtpx:hr>
3371 </gpxtpx:TrackPointExtension>
3372 </extensions>
3373 </trkpt>
3374 <trkpt lon="115.9718084" lat="-31.8943776">
3375 <ele>17.92</ele>
3376 <time>2008-11-13T09:32:10.000Z</time>
3377 <extensions>
3378 <gpxtpx:TrackPointExtension>
3379 <gpxtpx:hr>146</gpxtpx:hr>
3380 </gpxtpx:TrackPointExtension>
3381 </extensions>
3382 </trkpt>
3383 <trkpt lon="115.9721631" lat="-31.8943262">
3384 <ele>16.96</ele>
3385 <time>2008-11-13T09:32:19.000Z</time>
3386 <extensions>
3387 <gpxtpx:TrackPointExtension>
3388 <gpxtpx:hr>146</gpxtpx:hr>
3389 </gpxtpx:TrackPointExtension>
3390 </extensions>
3391 </trkpt>
3392 <trkpt lon="115.9725082" lat="-31.8942729">
3393 <ele>16.48</ele>
3394 <time>2008-11-13T09:32:28.000Z</time>
3395 <extensions>
3396 <gpxtpx:TrackPointExtension>
3397 <gpxtpx:hr>145</gpxtpx:hr>
3398 </gpxtpx:TrackPointExtension>
3399 </extensions>
3400 </trkpt>
3401 <trkpt lon="115.97266" lat="-31.8942453">
3402 <ele>16.0</ele>
3403 <time>2008-11-13T09:32:34.000Z</time>
3404 <extensions>
3405 <gpxtpx:TrackPointExtension>
3406 <gpxtpx:hr>141</gpxtpx:hr>
3407 </gpxtpx:TrackPointExtension>
3408 </extensions>
3409 </trkpt>
3410 <trkpt lon="115.9727531" lat="-31.8942534">
3411 <ele>14.56</ele>
3412 <time>2008-11-13T09:32:40.000Z</time>
3413 <extensions>
3414 <gpxtpx:TrackPointExtension>
3415 <gpxtpx:hr>137</gpxtpx:hr>
3416 </gpxtpx:TrackPointExtension>
3417 </extensions>
3418 </trkpt>
3419 <trkpt lon="115.972777" lat="-31.8942695">
3420 <ele>12.15</ele>
3421 <time>2008-11-13T09:32:42.000Z</time>
3422 <extensions>
3423 <gpxtpx:TrackPointExtension>
3424 <gpxtpx:hr>135</gpxtpx:hr>
3425 </gpxtpx:TrackPointExtension>
3426 </extensions>
3427 </trkpt>
3428 <trkpt lon="115.9727877" lat="-31.8943147">
3429 <ele>8.79</ele>
3430 <time>2008-11-13T09:32:47.000Z</time>
3431 <extensions>
3432 <gpxtpx:TrackPointExtension>
3433 <gpxtpx:hr>134</gpxtpx:hr>
3434 </gpxtpx:TrackPointExtension>
3435 </extensions>
3436 </trkpt>
3437 <trkpt lon="115.9727716" lat="-31.8943414">
3438 <ele>7.35</ele>
3439 <time>2008-11-13T09:32:50.000Z</time>
3440 <extensions>
3441 <gpxtpx:TrackPointExtension>
3442 <gpxtpx:hr>131</gpxtpx:hr>
3443 </gpxtpx:TrackPointExtension>
3444 </extensions>
3445 </trkpt>
3446 <trkpt lon="115.9727165" lat="-31.8943524">
3447 <ele>5.42</ele>
3448 <time>2008-11-13T09:32:54.000Z</time>
3449 <extensions>
3450 <gpxtpx:TrackPointExtension>
3451 <gpxtpx:hr>124</gpxtpx:hr>
3452 </gpxtpx:TrackPointExtension>
3453 </extensions>
3454 </trkpt>
3455 <trkpt lon="115.972678" lat="-31.8943482">
3456 <ele>4.94</ele>
3457 <time>2008-11-13T09:32:56.000Z</time>
3458 <extensions>
3459 <gpxtpx:TrackPointExtension>
3460 <gpxtpx:hr>123</gpxtpx:hr>
3461 </gpxtpx:TrackPointExtension>
3462 </extensions>
3463 </trkpt>
3464 <trkpt lon="115.9724299" lat="-31.8943197">
3465 <ele>3.5</ele>
3466 <time>2008-11-13T09:33:05.000Z</time>
3467 <extensions>
3468 <gpxtpx:TrackPointExtension>
3469 <gpxtpx:hr>122</gpxtpx:hr>
3470 </gpxtpx:TrackPointExtension>
3471 </extensions>
3472 </trkpt>
3473 <trkpt lon="115.9721497" lat="-31.8943326">
3474 <ele>2.54</ele>
3475 <time>2008-11-13T09:33:14.000Z</time>
3476 <extensions>
3477 <gpxtpx:TrackPointExtension>
3478 <gpxtpx:hr>120</gpxtpx:hr>
3479 </gpxtpx:TrackPointExtension>
3480 </extensions>
3481 </trkpt>
3482 <trkpt lon="115.9718527" lat="-31.8943414">
3483 <ele>1.1</ele>
3484 <time>2008-11-13T09:33:23.000Z</time>
3485 <extensions>
3486 <gpxtpx:TrackPointExtension>
3487 <gpxtpx:hr>120</gpxtpx:hr>
3488 </gpxtpx:TrackPointExtension>
3489 </extensions>
3490 </trkpt>
3491 <trkpt lon="115.9716828" lat="-31.8943503">
3492 <ele>2.54</ele>
3493 <time>2008-11-13T09:33:29.000Z</time>
3494 <extensions>
3495 <gpxtpx:TrackPointExtension>
3496 <gpxtpx:hr>121</gpxtpx:hr>
3497 </gpxtpx:TrackPointExtension>
3498 </extensions>
3499 </trkpt>
3500 <trkpt lon="115.9715087" lat="-31.894373">
3501 <ele>1.58</ele>
3502 <time>2008-11-13T09:33:34.000Z</time>
3503 <extensions>
3504 <gpxtpx:TrackPointExtension>
3505 <gpxtpx:hr>123</gpxtpx:hr>
3506 </gpxtpx:TrackPointExtension>
3507 </extensions>
3508 </trkpt>
3509 <trkpt lon="115.9711375" lat="-31.8944482">
3510 <ele>0.14</ele>
3511 <time>2008-11-13T09:33:44.000Z</time>
3512 <extensions>
3513 <gpxtpx:TrackPointExtension>
3514 <gpxtpx:hr>125</gpxtpx:hr>
3515 </gpxtpx:TrackPointExtension>
3516 </extensions>
3517 </trkpt>
3518 <trkpt lon="115.9708531" lat="-31.8945214">
3519 <ele>-0.82</ele>
3520 <time>2008-11-13T09:33:52.000Z</time>
3521 <extensions>
3522 <gpxtpx:TrackPointExtension>
3523 <gpxtpx:hr>129</gpxtpx:hr>
3524 </gpxtpx:TrackPointExtension>
3525 </extensions>
3526 </trkpt>
3527 <trkpt lon="115.9704558" lat="-31.8946193">
3528 <ele>-1.3</ele>
3529 <time>2008-11-13T09:34:03.000Z</time>
3530 <extensions>
3531 <gpxtpx:TrackPointExtension>
3532 <gpxtpx:hr>131</gpxtpx:hr>
3533 </gpxtpx:TrackPointExtension>
3534 </extensions>
3535 </trkpt>
3536 <trkpt lon="115.9701241" lat="-31.8947015">
3537 <ele>-2.75</ele>
3538 <time>2008-11-13T09:34:12.000Z</time>
3539 <extensions>
3540 <gpxtpx:TrackPointExtension>
3541 <gpxtpx:hr>136</gpxtpx:hr>
3542 </gpxtpx:TrackPointExtension>
3543 </extensions>
3544 </trkpt>
3545 <trkpt lon="115.9697637" lat="-31.8947983">
3546 <ele>-3.23</ele>
3547 <time>2008-11-13T09:34:22.000Z</time>
3548 <extensions>
3549 <gpxtpx:TrackPointExtension>
3550 <gpxtpx:hr>138</gpxtpx:hr>
3551 </gpxtpx:TrackPointExtension>
3552 </extensions>
3553 </trkpt>
3554 <trkpt lon="115.9693887" lat="-31.894865">
3555 <ele>-4.19</ele>
3556 <time>2008-11-13T09:34:32.000Z</time>
3557 <extensions>
3558 <gpxtpx:TrackPointExtension>
3559 <gpxtpx:hr>140</gpxtpx:hr>
3560 </gpxtpx:TrackPointExtension>
3561 </extensions>
3562 </trkpt>
3563 <trkpt lon="115.969058" lat="-31.8949226">
3564 <ele>-4.67</ele>
3565 <time>2008-11-13T09:34:41.000Z</time>
3566 <extensions>
3567 <gpxtpx:TrackPointExtension>
3568 <gpxtpx:hr>140</gpxtpx:hr>
3569 </gpxtpx:TrackPointExtension>
3570 </extensions>
3571 </trkpt>
3572 <trkpt lon="115.968702" lat="-31.8950044">
3573 <ele>-4.67</ele>
3574 <time>2008-11-13T09:34:51.000Z</time>
3575 <extensions>
3576 <gpxtpx:TrackPointExtension>
3577 <gpxtpx:hr>141</gpxtpx:hr>
3578 </gpxtpx:TrackPointExtension>
3579 </extensions>
3580 </trkpt>
3581 <trkpt lon="115.9683739" lat="-31.8950726">
3582 <ele>-4.67</ele>
3583 <time>2008-11-13T09:35:00.000Z</time>
3584 <extensions>
3585 <gpxtpx:TrackPointExtension>
3586 <gpxtpx:hr>142</gpxtpx:hr>
3587 </gpxtpx:TrackPointExtension>
3588 </extensions>
3589 </trkpt>
3590 <trkpt lon="115.9680833" lat="-31.8951215">
3591 <ele>-4.67</ele>
3592 <time>2008-11-13T09:35:08.000Z</time>
3593 <extensions>
3594 <gpxtpx:TrackPointExtension>
3595 <gpxtpx:hr>142</gpxtpx:hr>
3596 </gpxtpx:TrackPointExtension>
3597 </extensions>
3598 </trkpt>
3599 <trkpt lon="115.9677186" lat="-31.8951774">
3600 <ele>-5.15</ele>
3601 <time>2008-11-13T09:35:18.000Z</time>
3602 <extensions>
3603 <gpxtpx:TrackPointExtension>
3604 <gpxtpx:hr>143</gpxtpx:hr>
3605 </gpxtpx:TrackPointExtension>
3606 </extensions>
3607 </trkpt>
3608 <trkpt lon="115.9673988" lat="-31.8952261">
3609 <ele>-4.67</ele>
3610 <time>2008-11-13T09:35:27.000Z</time>
3611 <extensions>
3612 <gpxtpx:TrackPointExtension>
3613 <gpxtpx:hr>143</gpxtpx:hr>
3614 </gpxtpx:TrackPointExtension>
3615 </extensions>
3616 </trkpt>
3617 <trkpt lon="115.9671095" lat="-31.8952721">
3618 <ele>-4.67</ele>
3619 <time>2008-11-13T09:35:35.000Z</time>
3620 <extensions>
3621 <gpxtpx:TrackPointExtension>
3622 <gpxtpx:hr>142</gpxtpx:hr>
3623 </gpxtpx:TrackPointExtension>
3624 </extensions>
3625 </trkpt>
3626 <trkpt lon="115.9667099" lat="-31.8953358">
3627 <ele>-4.67</ele>
3628 <time>2008-11-13T09:35:46.000Z</time>
3629 <extensions>
3630 <gpxtpx:TrackPointExtension>
3631 <gpxtpx:hr>142</gpxtpx:hr>
3632 </gpxtpx:TrackPointExtension>
3633 </extensions>
3634 </trkpt>
3635 <trkpt lon="115.9663842" lat="-31.8953715">
3636 <ele>-4.67</ele>
3637 <time>2008-11-13T09:35:55.000Z</time>
3638 <extensions>
3639 <gpxtpx:TrackPointExtension>
3640 <gpxtpx:hr>142</gpxtpx:hr>
3641 </gpxtpx:TrackPointExtension>
3642 </extensions>
3643 </trkpt>
3644 <trkpt lon="115.9660978" lat="-31.8954008">
3645 <ele>-4.19</ele>
3646 <time>2008-11-13T09:36:03.000Z</time>
3647 <extensions>
3648 <gpxtpx:TrackPointExtension>
3649 <gpxtpx:hr>142</gpxtpx:hr>
3650 </gpxtpx:TrackPointExtension>
3651 </extensions>
3652 </trkpt>
3653 <trkpt lon="115.9657716" lat="-31.8954427">
3654 <ele>-3.71</ele>
3655 <time>2008-11-13T09:36:12.000Z</time>
3656 <extensions>
3657 <gpxtpx:TrackPointExtension>
3658 <gpxtpx:hr>142</gpxtpx:hr>
3659 </gpxtpx:TrackPointExtension>
3660 </extensions>
3661 </trkpt>
3662 <trkpt lon="115.9653648" lat="-31.8954844">
3663 <ele>-3.23</ele>
3664 <time>2008-11-13T09:36:23.000Z</time>
3665 <extensions>
3666 <gpxtpx:TrackPointExtension>
3667 <gpxtpx:hr>141</gpxtpx:hr>
3668 </gpxtpx:TrackPointExtension>
3669 </extensions>
3670 </trkpt>
3671 <trkpt lon="115.9649196" lat="-31.895506">
3672 <ele>-3.23</ele>
3673 <time>2008-11-13T09:36:35.000Z</time>
3674 <extensions>
3675 <gpxtpx:TrackPointExtension>
3676 <gpxtpx:hr>142</gpxtpx:hr>
3677 </gpxtpx:TrackPointExtension>
3678 </extensions>
3679 </trkpt>
3680 <trkpt lon="115.9645016" lat="-31.8955036">
3681 <ele>-2.75</ele>
3682 <time>2008-11-13T09:36:46.000Z</time>
3683 <extensions>
3684 <gpxtpx:TrackPointExtension>
3685 <gpxtpx:hr>142</gpxtpx:hr>
3686 </gpxtpx:TrackPointExtension>
3687 </extensions>
3688 </trkpt>
3689 <trkpt lon="115.9640228" lat="-31.8954793">
3690 <ele>-2.27</ele>
3691 <time>2008-11-13T09:36:59.000Z</time>
3692 <extensions>
3693 <gpxtpx:TrackPointExtension>
3694 <gpxtpx:hr>143</gpxtpx:hr>
3695 </gpxtpx:TrackPointExtension>
3696 </extensions>
3697 </trkpt>
3698 <trkpt lon="115.9636885" lat="-31.895465">
3699 <ele>-1.79</ele>
3700 <time>2008-11-13T09:37:08.000Z</time>
3701 <extensions>
3702 <gpxtpx:TrackPointExtension>
3703 <gpxtpx:hr>143</gpxtpx:hr>
3704 </gpxtpx:TrackPointExtension>
3705 </extensions>
3706 </trkpt>
3707 <trkpt lon="115.9630851" lat="-31.8954468">
3708 <ele>-2.27</ele>
3709 <time>2008-11-13T09:37:24.000Z</time>
3710 <extensions>
3711 <gpxtpx:TrackPointExtension>
3712 <gpxtpx:hr>145</gpxtpx:hr>
3713 </gpxtpx:TrackPointExtension>
3714 </extensions>
3715 </trkpt>
3716 <trkpt lon="115.962682" lat="-31.895412">
3717 <ele>-1.79</ele>
3718 <time>2008-11-13T09:37:35.000Z</time>
3719 <extensions>
3720 <gpxtpx:TrackPointExtension>
3721 <gpxtpx:hr>143</gpxtpx:hr>
3722 </gpxtpx:TrackPointExtension>
3723 </extensions>
3724 </trkpt>
3725 <trkpt lon="115.9622587" lat="-31.8953732">
3726 <ele>-3.23</ele>
3727 <time>2008-11-13T09:37:46.000Z</time>
3728 <extensions>
3729 <gpxtpx:TrackPointExtension>
3730 <gpxtpx:hr>144</gpxtpx:hr>
3731 </gpxtpx:TrackPointExtension>
3732 </extensions>
3733 </trkpt>
3734 <trkpt lon="115.9620455" lat="-31.8953541">
3735 <ele>-3.23</ele>
3736 <time>2008-11-13T09:37:53.000Z</time>
3737 <extensions>
3738 <gpxtpx:TrackPointExtension>
3739 <gpxtpx:hr>142</gpxtpx:hr>
3740 </gpxtpx:TrackPointExtension>
3741 </extensions>
3742 </trkpt>
3743 <trkpt lon="115.9619785" lat="-31.8953494">
3744 <ele>-2.27</ele>
3745 <time>2008-11-13T09:37:58.000Z</time>
3746 <extensions>
3747 <gpxtpx:TrackPointExtension>
3748 <gpxtpx:hr>137</gpxtpx:hr>
3749 </gpxtpx:TrackPointExtension>
3750 </extensions>
3751 </trkpt>
3752 <trkpt lon="115.96194" lat="-31.8953515">
3753 <ele>-1.79</ele>
3754 <time>2008-11-13T09:38:02.000Z</time>
3755 <extensions>
3756 <gpxtpx:TrackPointExtension>
3757 <gpxtpx:hr>132</gpxtpx:hr>
3758 </gpxtpx:TrackPointExtension>
3759 </extensions>
3760 </trkpt>
3761 <trkpt lon="115.961907" lat="-31.8953546">
3762 <ele>-0.82</ele>
3763 <time>2008-11-13T09:38:06.000Z</time>
3764 <extensions>
3765 <gpxtpx:TrackPointExtension>
3766 <gpxtpx:hr>127</gpxtpx:hr>
3767 </gpxtpx:TrackPointExtension>
3768 </extensions>
3769 </trkpt>
3770 <trkpt lon="115.9618939" lat="-31.8953559">
3771 <ele>-0.82</ele>
3772 <time>2008-11-13T09:38:08.000Z</time>
3773 <extensions>
3774 <gpxtpx:TrackPointExtension>
3775 <gpxtpx:hr>121</gpxtpx:hr>
3776 </gpxtpx:TrackPointExtension>
3777 </extensions>
3778 </trkpt>
3779 <trkpt lon="115.9618769" lat="-31.8953566">
3780 <ele>0.14</ele>
3781 <time>2008-11-13T09:38:15.000Z</time>
3782 <extensions>
3783 <gpxtpx:TrackPointExtension>
3784 <gpxtpx:hr>116</gpxtpx:hr>
3785 </gpxtpx:TrackPointExtension>
3786 </extensions>
3787 </trkpt>
3788 <trkpt lon="115.9618803" lat="-31.8953598">
3789 <ele>0.14</ele>
3790 <time>2008-11-13T09:38:22.000Z</time>
3791 <extensions>
3792 <gpxtpx:TrackPointExtension>
3793 <gpxtpx:hr>111</gpxtpx:hr>
3794 </gpxtpx:TrackPointExtension>
3795 </extensions>
3796 </trkpt>
3797 <trkpt lon="115.9618424" lat="-31.8953603">
3798 <ele>-0.34</ele>
3799 <time>2008-11-13T09:38:28.000Z</time>
3800 <extensions>
3801 <gpxtpx:TrackPointExtension>
3802 <gpxtpx:hr>105</gpxtpx:hr>
3803 </gpxtpx:TrackPointExtension>
3804 </extensions>
3805 </trkpt>
3806 <trkpt lon="115.9618118" lat="-31.8953536">
3807 <ele>0.62</ele>
3808 <time>2008-11-13T09:38:35.000Z</time>
3809 <extensions>
3810 <gpxtpx:TrackPointExtension>
3811 <gpxtpx:hr>97</gpxtpx:hr>
3812 </gpxtpx:TrackPointExtension>
3813 </extensions>
3814 </trkpt>
3815 <trkpt lon="115.9617512" lat="-31.89535">
3816 <ele>1.58</ele>
3817 <time>2008-11-13T09:38:47.000Z</time>
3818 <extensions>
3819 <gpxtpx:TrackPointExtension>
3820 <gpxtpx:hr>100</gpxtpx:hr>
3821 </gpxtpx:TrackPointExtension>
3822 </extensions>
3823 </trkpt>
3824 <trkpt lon="115.9616891" lat="-31.8953502">
3825 <ele>2.54</ele>
3826 <time>2008-11-13T09:38:56.000Z</time>
3827 <extensions>
3828 <gpxtpx:TrackPointExtension>
3829 <gpxtpx:hr>95</gpxtpx:hr>
3830 </gpxtpx:TrackPointExtension>
3831 </extensions>
3832 </trkpt>
3833 <trkpt lon="115.9616301" lat="-31.8953479">
3834 <ele>3.02</ele>
3835 <time>2008-11-13T09:39:04.000Z</time>
3836 <extensions>
3837 <gpxtpx:TrackPointExtension>
3838 <gpxtpx:hr>96</gpxtpx:hr>
3839 </gpxtpx:TrackPointExtension>
3840 </extensions>
3841 </trkpt>
3842 <trkpt lon="115.9615227" lat="-31.8953311">
3843 <ele>3.02</ele>
3844 <time>2008-11-13T09:39:11.000Z</time>
3845 <extensions>
3846 <gpxtpx:TrackPointExtension>
3847 <gpxtpx:hr>97</gpxtpx:hr>
3848 </gpxtpx:TrackPointExtension>
3849 </extensions>
3850 </trkpt>
3851 <trkpt lon="115.961443" lat="-31.8953226">
3852 <ele>2.54</ele>
3853 <time>2008-11-13T09:39:20.000Z</time>
3854 <extensions>
3855 <gpxtpx:TrackPointExtension>
3856 <gpxtpx:hr>92</gpxtpx:hr>
3857 </gpxtpx:TrackPointExtension>
3858 </extensions>
3859 </trkpt>
3860 <trkpt lon="115.9613621" lat="-31.8953069">
3861 <ele>2.54</ele>
3862 <time>2008-11-13T09:39:30.000Z</time>
3863 <extensions>
3864 <gpxtpx:TrackPointExtension>
3865 <gpxtpx:hr>96</gpxtpx:hr>
3866 </gpxtpx:TrackPointExtension>
3867 </extensions>
3868 </trkpt>
3869 <trkpt lon="115.9612554" lat="-31.8952883">
3870 <ele>2.06</ele>
3871 <time>2008-11-13T09:39:40.000Z</time>
3872 <extensions>
3873 <gpxtpx:TrackPointExtension>
3874 <gpxtpx:hr>96</gpxtpx:hr>
3875 </gpxtpx:TrackPointExtension>
3876 </extensions>
3877 </trkpt>
3878 <trkpt lon="115.961169" lat="-31.8952551">
3879 <ele>1.1</ele>
3880 <time>2008-11-13T09:39:49.000Z</time>
3881 <extensions>
3882 <gpxtpx:TrackPointExtension>
3883 <gpxtpx:hr>97</gpxtpx:hr>
3884 </gpxtpx:TrackPointExtension>
3885 </extensions>
3886 </trkpt>
3887 <trkpt lon="115.9610173" lat="-31.8952028">
3888 <ele>1.58</ele>
3889 <time>2008-11-13T09:39:59.000Z</time>
3890 <extensions>
3891 <gpxtpx:TrackPointExtension>
3892 <gpxtpx:hr>98</gpxtpx:hr>
3893 </gpxtpx:TrackPointExtension>
3894 </extensions>
3895 </trkpt>
3896 <trkpt lon="115.9608976" lat="-31.8951693">
3897 <ele>1.58</ele>
3898 <time>2008-11-13T09:40:08.000Z</time>
3899 <extensions>
3900 <gpxtpx:TrackPointExtension>
3901 <gpxtpx:hr>98</gpxtpx:hr>
3902 </gpxtpx:TrackPointExtension>
3903 </extensions>
3904 </trkpt>
3905 <trkpt lon="115.9607576" lat="-31.8951406">
3906 <ele>1.58</ele>
3907 <time>2008-11-13T09:40:16.000Z</time>
3908 <extensions>
3909 <gpxtpx:TrackPointExtension>
3910 <gpxtpx:hr>102</gpxtpx:hr>
3911 </gpxtpx:TrackPointExtension>
3912 </extensions>
3913 </trkpt>
3914 <trkpt lon="115.9605608" lat="-31.8950886">
3915 <ele>1.58</ele>
3916 <time>2008-11-13T09:40:27.000Z</time>
3917 <extensions>
3918 <gpxtpx:TrackPointExtension>
3919 <gpxtpx:hr>97</gpxtpx:hr>
3920 </gpxtpx:TrackPointExtension>
3921 </extensions>
3922 </trkpt>
3923 <trkpt lon="115.9604167" lat="-31.8950763">
3924 <ele>0.62</ele>
3925 <time>2008-11-13T09:40:36.000Z</time>
3926 <extensions>
3927 <gpxtpx:TrackPointExtension>
3928 <gpxtpx:hr>96</gpxtpx:hr>
3929 </gpxtpx:TrackPointExtension>
3930 </extensions>
3931 </trkpt>
3932 <trkpt lon="115.960261" lat="-31.8950682">
3933 <ele>1.1</ele>
3934 <time>2008-11-13T09:40:45.000Z</time>
3935 <extensions>
3936 <gpxtpx:TrackPointExtension>
3937 <gpxtpx:hr>96</gpxtpx:hr>
3938 </gpxtpx:TrackPointExtension>
3939 </extensions>
3940 </trkpt>
3941 <trkpt lon="115.9600825" lat="-31.8950328">
3942 <ele>0.62</ele>
3943 <time>2008-11-13T09:40:54.000Z</time>
3944 <extensions>
3945 <gpxtpx:TrackPointExtension>
3946 <gpxtpx:hr>95</gpxtpx:hr>
3947 </gpxtpx:TrackPointExtension>
3948 </extensions>
3949 </trkpt>
3950 <trkpt lon="115.9598743" lat="-31.8949944">
3951 <ele>1.1</ele>
3952 <time>2008-11-13T09:41:04.000Z</time>
3953 <extensions>
3954 <gpxtpx:TrackPointExtension>
3955 <gpxtpx:hr>97</gpxtpx:hr>
3956 </gpxtpx:TrackPointExtension>
3957 </extensions>
3958 </trkpt>
3959 <trkpt lon="115.9597558" lat="-31.894979">
3960 <ele>2.06</ele>
3961 <time>2008-11-13T09:41:14.000Z</time>
3962 <extensions>
3963 <gpxtpx:TrackPointExtension>
3964 <gpxtpx:hr>93</gpxtpx:hr>
3965 </gpxtpx:TrackPointExtension>
3966 </extensions>
3967 </trkpt>
3968 <trkpt lon="115.9596935" lat="-31.894975">
3969 <ele>3.02</ele>
3970 <time>2008-11-13T09:41:26.000Z</time>
3971 <extensions>
3972 <gpxtpx:TrackPointExtension>
3973 <gpxtpx:hr>91</gpxtpx:hr>
3974 </gpxtpx:TrackPointExtension>
3975 </extensions>
3976 </trkpt>
3977 <trkpt lon="115.9596832" lat="-31.8949719">
3978 <ele>3.02</ele>
3979 <time>2008-11-13T09:41:38.000Z</time>
3980 <extensions>
3981 <gpxtpx:TrackPointExtension>
3982 <gpxtpx:hr>90</gpxtpx:hr>
3983 </gpxtpx:TrackPointExtension>
3984 </extensions>
3985 </trkpt>
3986 <trkpt lon="115.959657" lat="-31.8949728">
3987 <ele>3.02</ele>
3988 <time>2008-11-13T09:41:48.000Z</time>
3989 <extensions>
3990 <gpxtpx:TrackPointExtension>
3991 <gpxtpx:hr>91</gpxtpx:hr>
3992 </gpxtpx:TrackPointExtension>
3993 </extensions>
3994 </trkpt>
3995 <trkpt lon="115.9595994" lat="-31.8949577">
3996 <ele>3.02</ele>
3997 <time>2008-11-13T09:42:03.000Z</time>
3998 <extensions>
3999 <gpxtpx:TrackPointExtension>
4000 <gpxtpx:hr>88</gpxtpx:hr>
4001 </gpxtpx:TrackPointExtension>
4002 </extensions>
4003 </trkpt>
4004 <trkpt lon="115.9595795" lat="-31.8949636">
4005 <ele>3.5</ele>
4006 <time>2008-11-13T09:42:12.000Z</time>
4007 <extensions>
4008 <gpxtpx:TrackPointExtension>
4009 <gpxtpx:hr>86</gpxtpx:hr>
4010 </gpxtpx:TrackPointExtension>
4011 </extensions>
4012 </trkpt>
4013 <trkpt lon="115.9595551" lat="-31.8949702">
4014 <ele>4.94</ele>
4015 <time>2008-11-13T09:42:23.000Z</time>
4016 <extensions>
4017 <gpxtpx:TrackPointExtension>
4018 <gpxtpx:hr>88</gpxtpx:hr>
4019 </gpxtpx:TrackPointExtension>
4020 </extensions>
4021 </trkpt>
4022 <trkpt lon="115.9595424" lat="-31.8949707">
4023 <ele>4.94</ele>
4024 <time>2008-11-13T09:42:27.000Z</time>
4025 <extensions>
4026 <gpxtpx:TrackPointExtension>
4027 <gpxtpx:hr>93</gpxtpx:hr>
4028 </gpxtpx:TrackPointExtension>
4029 </extensions>
4030 </trkpt>
4031 <trkpt lon="115.9595078" lat="-31.8949949">
4032 <ele>4.94</ele>
4033 <time>2008-11-13T09:42:38.000Z</time>
4034 <extensions>
4035 <gpxtpx:TrackPointExtension>
4036 <gpxtpx:hr>91</gpxtpx:hr>
4037 </gpxtpx:TrackPointExtension>
4038 </extensions>
4039 </trkpt>
4040 <trkpt lon="115.9594484" lat="-31.8949907">
4041 <ele>4.94</ele>
4042 <time>2008-11-13T09:42:52.000Z</time>
4043 <extensions>
4044 <gpxtpx:TrackPointExtension>
4045 <gpxtpx:hr>94</gpxtpx:hr>
4046 </gpxtpx:TrackPointExtension>
4047 </extensions>
4048 </trkpt>
4049 <trkpt lon="115.9593712" lat="-31.8949711">
4050 <ele>4.46</ele>
4051 <time>2008-11-13T09:43:01.000Z</time>
4052 <extensions>
4053 <gpxtpx:TrackPointExtension>
4054 <gpxtpx:hr>92</gpxtpx:hr>
4055 </gpxtpx:TrackPointExtension>
4056 </extensions>
4057 </trkpt>
4058 <trkpt lon="115.9592798" lat="-31.8949574">
4059 <ele>3.98</ele>
4060 <time>2008-11-13T09:43:11.000Z</time>
4061 <extensions>
4062 <gpxtpx:TrackPointExtension>
4063 <gpxtpx:hr>91</gpxtpx:hr>
4064 </gpxtpx:TrackPointExtension>
4065 </extensions>
4066 </trkpt>
4067 <trkpt lon="115.9591534" lat="-31.8949674">
4068 <ele>3.98</ele>
4069 <time>2008-11-13T09:43:20.000Z</time>
4070 <extensions>
4071 <gpxtpx:TrackPointExtension>
4072 <gpxtpx:hr>93</gpxtpx:hr>
4073 </gpxtpx:TrackPointExtension>
4074 </extensions>
4075 </trkpt>
4076 <trkpt lon="115.9590191" lat="-31.8949737">
4077 <ele>3.5</ele>
4078 <time>2008-11-13T09:43:28.000Z</time>
4079 <extensions>
4080 <gpxtpx:TrackPointExtension>
4081 <gpxtpx:hr>90</gpxtpx:hr>
4082 </gpxtpx:TrackPointExtension>
4083 </extensions>
4084 </trkpt>
4085 <trkpt lon="115.9589214" lat="-31.8949955">
4086 <ele>3.02</ele>
4087 <time>2008-11-13T09:43:33.000Z</time>
4088 <extensions>
4089 <gpxtpx:TrackPointExtension>
4090 <gpxtpx:hr>95</gpxtpx:hr>
4091 </gpxtpx:TrackPointExtension>
4092 </extensions>
4093 </trkpt>
4094 <trkpt lon="115.9587488" lat="-31.895067">
4095 <ele>2.54</ele>
4096 <time>2008-11-13T09:43:43.000Z</time>
4097 <extensions>
4098 <gpxtpx:TrackPointExtension>
4099 <gpxtpx:hr>96</gpxtpx:hr>
4100 </gpxtpx:TrackPointExtension>
4101 </extensions>
4102 </trkpt>
4103 <trkpt lon="115.9586975" lat="-31.8950961">
4104 <ele>2.54</ele>
4105 <time>2008-11-13T09:43:46.000Z</time>
4106 <extensions>
4107 <gpxtpx:TrackPointExtension>
4108 <gpxtpx:hr>104</gpxtpx:hr>
4109 </gpxtpx:TrackPointExtension>
4110 </extensions>
4111 </trkpt>
4112 <trkpt lon="115.9586327" lat="-31.8951342">
4113 <ele>2.54</ele>
4114 <time>2008-11-13T09:43:50.000Z</time>
4115 <extensions>
4116 <gpxtpx:TrackPointExtension>
4117 <gpxtpx:hr>99</gpxtpx:hr>
4118 </gpxtpx:TrackPointExtension>
4119 </extensions>
4120 </trkpt>
4121 <trkpt lon="115.9584979" lat="-31.8952366">
4122 <ele>2.54</ele>
4123 <time>2008-11-13T09:43:59.000Z</time>
4124 <extensions>
4125 <gpxtpx:TrackPointExtension>
4126 <gpxtpx:hr>97</gpxtpx:hr>
4127 </gpxtpx:TrackPointExtension>
4128 </extensions>
4129 </trkpt>
4130 <trkpt lon="115.958349" lat="-31.895396">
4131 <ele>2.54</ele>
4132 <time>2008-11-13T09:44:09.000Z</time>
4133 <extensions>
4134 <gpxtpx:TrackPointExtension>
4135 <gpxtpx:hr>97</gpxtpx:hr>
4136 </gpxtpx:TrackPointExtension>
4137 </extensions>
4138 </trkpt>
4139 <trkpt lon="115.9582319" lat="-31.8955638">
4140 <ele>-0.82</ele>
4141 <time>2008-11-13T09:44:19.000Z</time>
4142 <extensions>
4143 <gpxtpx:TrackPointExtension>
4144 <gpxtpx:hr>98</gpxtpx:hr>
4145 </gpxtpx:TrackPointExtension>
4146 </extensions>
4147 </trkpt>
4148 <trkpt lon="115.9581355" lat="-31.8957519">
4149 <ele>-1.3</ele>
4150 <time>2008-11-13T09:44:30.000Z</time>
4151 <extensions>
4152 <gpxtpx:TrackPointExtension>
4153 <gpxtpx:hr>98</gpxtpx:hr>
4154 </gpxtpx:TrackPointExtension>
4155 </extensions>
4156 </trkpt>
4157 <trkpt lon="115.9580793" lat="-31.8958888">
4158 <ele>-0.82</ele>
4159 <time>2008-11-13T09:44:37.000Z</time>
4160 <extensions>
4161 <gpxtpx:TrackPointExtension>
4162 <gpxtpx:hr>100</gpxtpx:hr>
4163 </gpxtpx:TrackPointExtension>
4164 </extensions>
4165 </trkpt>
4166 <trkpt lon="115.9580246" lat="-31.8960918">
4167 <ele>-0.82</ele>
4168 <time>2008-11-13T09:44:45.000Z</time>
4169 <extensions>
4170 <gpxtpx:TrackPointExtension>
4171 <gpxtpx:hr>103</gpxtpx:hr>
4172 </gpxtpx:TrackPointExtension>
4173 </extensions>
4174 </trkpt>
4175 <trkpt lon="115.9579633" lat="-31.896369">
4176 <ele>1.58</ele>
4177 <time>2008-11-13T09:44:56.000Z</time>
4178 <extensions>
4179 <gpxtpx:TrackPointExtension>
4180 <gpxtpx:hr>105</gpxtpx:hr>
4181 </gpxtpx:TrackPointExtension>
4182 </extensions>
4183 </trkpt>
4184 <trkpt lon="115.9579345" lat="-31.8965601">
4185 <ele>1.1</ele>
4186 <time>2008-11-13T09:45:03.000Z</time>
4187 <extensions>
4188 <gpxtpx:TrackPointExtension>
4189 <gpxtpx:hr>109</gpxtpx:hr>
4190 </gpxtpx:TrackPointExtension>
4191 </extensions>
4192 </trkpt>
4193 <trkpt lon="115.9579369" lat="-31.8967727">
4194 <ele>5.42</ele>
4195 <time>2008-11-13T09:45:10.000Z</time>
4196 <extensions>
4197 <gpxtpx:TrackPointExtension>
4198 <gpxtpx:hr>113</gpxtpx:hr>
4199 </gpxtpx:TrackPointExtension>
4200 </extensions>
4201 </trkpt>
4202 <trkpt lon="115.9579563" lat="-31.8969281">
4203 <ele>7.83</ele>
4204 <time>2008-11-13T09:45:15.000Z</time>
4205 <extensions>
4206 <gpxtpx:TrackPointExtension>
4207 <gpxtpx:hr>118</gpxtpx:hr>
4208 </gpxtpx:TrackPointExtension>
4209 </extensions>
4210 </trkpt>
4211 <trkpt lon="115.9580158" lat="-31.8971757">
4212 <ele>11.67</ele>
4213 <time>2008-11-13T09:45:23.000Z</time>
4214 <extensions>
4215 <gpxtpx:TrackPointExtension>
4216 <gpxtpx:hr>122</gpxtpx:hr>
4217 </gpxtpx:TrackPointExtension>
4218 </extensions>
4219 </trkpt>
4220 <trkpt lon="115.9581029" lat="-31.897394">
4221 <ele>15.52</ele>
4222 <time>2008-11-13T09:45:31.000Z</time>
4223 <extensions>
4224 <gpxtpx:TrackPointExtension>
4225 <gpxtpx:hr>125</gpxtpx:hr>
4226 </gpxtpx:TrackPointExtension>
4227 </extensions>
4228 </trkpt>
4229 <trkpt lon="115.9582194" lat="-31.8976155">
4230 <ele>12.63</ele>
4231 <time>2008-11-13T09:45:39.000Z</time>
4232 <extensions>
4233 <gpxtpx:TrackPointExtension>
4234 <gpxtpx:hr>129</gpxtpx:hr>
4235 </gpxtpx:TrackPointExtension>
4236 </extensions>
4237 </trkpt>
4238 <trkpt lon="115.9584395" lat="-31.8978524">
4239 <ele>12.63</ele>
4240 <time>2008-11-13T09:45:48.000Z</time>
4241 <extensions>
4242 <gpxtpx:TrackPointExtension>
4243 <gpxtpx:hr>133</gpxtpx:hr>
4244 </gpxtpx:TrackPointExtension>
4245 </extensions>
4246 </trkpt>
4247 <trkpt lon="115.9586785" lat="-31.8980221">
4248 <ele>9.27</ele>
4249 <time>2008-11-13T09:45:56.000Z</time>
4250 <extensions>
4251 <gpxtpx:TrackPointExtension>
4252 <gpxtpx:hr>136</gpxtpx:hr>
4253 </gpxtpx:TrackPointExtension>
4254 </extensions>
4255 </trkpt>
4256 <trkpt lon="115.9589818" lat="-31.898212">
4257 <ele>6.87</ele>
4258 <time>2008-11-13T09:46:06.000Z</time>
4259 <extensions>
4260 <gpxtpx:TrackPointExtension>
4261 <gpxtpx:hr>136</gpxtpx:hr>
4262 </gpxtpx:TrackPointExtension>
4263 </extensions>
4264 </trkpt>
4265 <trkpt lon="115.9593041" lat="-31.8984193">
4266 <ele>6.87</ele>
4267 <time>2008-11-13T09:46:17.000Z</time>
4268 <extensions>
4269 <gpxtpx:TrackPointExtension>
4270 <gpxtpx:hr>139</gpxtpx:hr>
4271 </gpxtpx:TrackPointExtension>
4272 </extensions>
4273 </trkpt>
4274 <trkpt lon="115.9595854" lat="-31.8986189">
4275 <ele>4.94</ele>
4276 <time>2008-11-13T09:46:27.000Z</time>
4277 <extensions>
4278 <gpxtpx:TrackPointExtension>
4279 <gpxtpx:hr>142</gpxtpx:hr>
4280 </gpxtpx:TrackPointExtension>
4281 </extensions>
4282 </trkpt>
4283 <trkpt lon="115.9598247" lat="-31.8988196">
4284 <ele>3.98</ele>
4285 <time>2008-11-13T09:46:36.000Z</time>
4286 <extensions>
4287 <gpxtpx:TrackPointExtension>
4288 <gpxtpx:hr>140</gpxtpx:hr>
4289 </gpxtpx:TrackPointExtension>
4290 </extensions>
4291 </trkpt>
4292 <trkpt lon="115.960083" lat="-31.8990465">
4293 <ele>3.98</ele>
4294 <time>2008-11-13T09:46:46.000Z</time>
4295 <extensions>
4296 <gpxtpx:TrackPointExtension>
4297 <gpxtpx:hr>140</gpxtpx:hr>
4298 </gpxtpx:TrackPointExtension>
4299 </extensions>
4300 </trkpt>
4301 <trkpt lon="115.9603277" lat="-31.8992697">
4302 <ele>5.42</ele>
4303 <time>2008-11-13T09:46:56.000Z</time>
4304 <extensions>
4305 <gpxtpx:TrackPointExtension>
4306 <gpxtpx:hr>140</gpxtpx:hr>
4307 </gpxtpx:TrackPointExtension>
4308 </extensions>
4309 </trkpt>
4310 <trkpt lon="115.9604592" lat="-31.8994095">
4311 <ele>4.94</ele>
4312 <time>2008-11-13T09:47:02.000Z</time>
4313 <extensions>
4314 <gpxtpx:TrackPointExtension>
4315 <gpxtpx:hr>140</gpxtpx:hr>
4316 </gpxtpx:TrackPointExtension>
4317 </extensions>
4318 </trkpt>
4319 <trkpt lon="115.9605751" lat="-31.8995509">
4320 <ele>7.35</ele>
4321 <time>2008-11-13T09:47:08.000Z</time>
4322 <extensions>
4323 <gpxtpx:TrackPointExtension>
4324 <gpxtpx:hr>140</gpxtpx:hr>
4325 </gpxtpx:TrackPointExtension>
4326 </extensions>
4327 </trkpt>
4328 <trkpt lon="115.9606844" lat="-31.8997067">
4329 <ele>7.35</ele>
4330 <time>2008-11-13T09:47:14.000Z</time>
4331 <extensions>
4332 <gpxtpx:TrackPointExtension>
4333 <gpxtpx:hr>141</gpxtpx:hr>
4334 </gpxtpx:TrackPointExtension>
4335 </extensions>
4336 </trkpt>
4337 <trkpt lon="115.960886" lat="-31.8999898">
4338 <ele>5.91</ele>
4339 <time>2008-11-13T09:47:24.000Z</time>
4340 <extensions>
4341 <gpxtpx:TrackPointExtension>
4342 <gpxtpx:hr>141</gpxtpx:hr>
4343 </gpxtpx:TrackPointExtension>
4344 </extensions>
4345 </trkpt>
4346 <trkpt lon="115.9610628" lat="-31.90024">
4347 <ele>1.1</ele>
4348 <time>2008-11-13T09:47:34.000Z</time>
4349 <extensions>
4350 <gpxtpx:TrackPointExtension>
4351 <gpxtpx:hr>141</gpxtpx:hr>
4352 </gpxtpx:TrackPointExtension>
4353 </extensions>
4354 </trkpt>
4355 <trkpt lon="115.9611141" lat="-31.9003498">
4356 <ele>1.1</ele>
4357 <time>2008-11-13T09:47:39.000Z</time>
4358 <extensions>
4359 <gpxtpx:TrackPointExtension>
4360 <gpxtpx:hr>140</gpxtpx:hr>
4361 </gpxtpx:TrackPointExtension>
4362 </extensions>
4363 </trkpt>
4364 <trkpt lon="115.9613105" lat="-31.9005812">
4365 <ele>3.02</ele>
4366 <time>2008-11-13T09:47:47.000Z</time>
4367 <extensions>
4368 <gpxtpx:TrackPointExtension>
4369 <gpxtpx:hr>140</gpxtpx:hr>
4370 </gpxtpx:TrackPointExtension>
4371 </extensions>
4372 </trkpt>
4373 <trkpt lon="115.961521" lat="-31.9008206">
4374 <ele>5.91</ele>
4375 <time>2008-11-13T09:47:56.000Z</time>
4376 <extensions>
4377 <gpxtpx:TrackPointExtension>
4378 <gpxtpx:hr>141</gpxtpx:hr>
4379 </gpxtpx:TrackPointExtension>
4380 </extensions>
4381 </trkpt>
4382 <trkpt lon="115.9617626" lat="-31.9011127">
4383 <ele>8.79</ele>
4384 <time>2008-11-13T09:48:07.000Z</time>
4385 <extensions>
4386 <gpxtpx:TrackPointExtension>
4387 <gpxtpx:hr>142</gpxtpx:hr>
4388 </gpxtpx:TrackPointExtension>
4389 </extensions>
4390 </trkpt>
4391 <trkpt lon="115.9619797" lat="-31.9014084">
4392 <ele>10.23</ele>
4393 <time>2008-11-13T09:48:18.000Z</time>
4394 <extensions>
4395 <gpxtpx:TrackPointExtension>
4396 <gpxtpx:hr>142</gpxtpx:hr>
4397 </gpxtpx:TrackPointExtension>
4398 </extensions>
4399 </trkpt>
4400 <trkpt lon="115.9621717" lat="-31.9017049">
4401 <ele>11.19</ele>
4402 <time>2008-11-13T09:48:29.000Z</time>
4403 <extensions>
4404 <gpxtpx:TrackPointExtension>
4405 <gpxtpx:hr>143</gpxtpx:hr>
4406 </gpxtpx:TrackPointExtension>
4407 </extensions>
4408 </trkpt>
4409 <trkpt lon="115.9623329" lat="-31.902006">
4410 <ele>8.31</ele>
4411 <time>2008-11-13T09:48:40.000Z</time>
4412 <extensions>
4413 <gpxtpx:TrackPointExtension>
4414 <gpxtpx:hr>143</gpxtpx:hr>
4415 </gpxtpx:TrackPointExtension>
4416 </extensions>
4417 </trkpt>
4418 <trkpt lon="115.9624986" lat="-31.9023953">
4419 <ele>3.5</ele>
4420 <time>2008-11-13T09:48:53.000Z</time>
4421 <extensions>
4422 <gpxtpx:TrackPointExtension>
4423 <gpxtpx:hr>143</gpxtpx:hr>
4424 </gpxtpx:TrackPointExtension>
4425 </extensions>
4426 </trkpt>
4427 <trkpt lon="115.9626171" lat="-31.9027176">
4428 <ele>2.54</ele>
4429 <time>2008-11-13T09:49:04.000Z</time>
4430 <extensions>
4431 <gpxtpx:TrackPointExtension>
4432 <gpxtpx:hr>144</gpxtpx:hr>
4433 </gpxtpx:TrackPointExtension>
4434 </extensions>
4435 </trkpt>
4436 <trkpt lon="115.9627096" lat="-31.9030164">
4437 <ele>1.1</ele>
4438 <time>2008-11-13T09:49:14.000Z</time>
4439 <extensions>
4440 <gpxtpx:TrackPointExtension>
4441 <gpxtpx:hr>144</gpxtpx:hr>
4442 </gpxtpx:TrackPointExtension>
4443 </extensions>
4444 </trkpt>
4445 <trkpt lon="115.9628095" lat="-31.9033463">
4446 <ele>-1.3</ele>
4447 <time>2008-11-13T09:49:25.000Z</time>
4448 <extensions>
4449 <gpxtpx:TrackPointExtension>
4450 <gpxtpx:hr>146</gpxtpx:hr>
4451 </gpxtpx:TrackPointExtension>
4452 </extensions>
4453 </trkpt>
4454 <trkpt lon="115.9628794" lat="-31.9036765">
4455 <ele>-1.79</ele>
4456 <time>2008-11-13T09:49:36.000Z</time>
4457 <extensions>
4458 <gpxtpx:TrackPointExtension>
4459 <gpxtpx:hr>150</gpxtpx:hr>
4460 </gpxtpx:TrackPointExtension>
4461 </extensions>
4462 </trkpt>
4463 <trkpt lon="115.9629032" lat="-31.9039815">
4464 <ele>-2.75</ele>
4465 <time>2008-11-13T09:49:46.000Z</time>
4466 <extensions>
4467 <gpxtpx:TrackPointExtension>
4468 <gpxtpx:hr>148</gpxtpx:hr>
4469 </gpxtpx:TrackPointExtension>
4470 </extensions>
4471 </trkpt>
4472 <trkpt lon="115.9629308" lat="-31.9043023">
4473 <ele>-3.23</ele>
4474 <time>2008-11-13T09:49:56.000Z</time>
4475 <extensions>
4476 <gpxtpx:TrackPointExtension>
4477 <gpxtpx:hr>144</gpxtpx:hr>
4478 </gpxtpx:TrackPointExtension>
4479 </extensions>
4480 </trkpt>
4481 <trkpt lon="115.9629012" lat="-31.9045921">
4482 <ele>-4.19</ele>
4483 <time>2008-11-13T09:50:05.000Z</time>
4484 <extensions>
4485 <gpxtpx:TrackPointExtension>
4486 <gpxtpx:hr>144</gpxtpx:hr>
4487 </gpxtpx:TrackPointExtension>
4488 </extensions>
4489 </trkpt>
4490 <trkpt lon="115.9628126" lat="-31.9049102">
4491 <ele>-3.71</ele>
4492 <time>2008-11-13T09:50:15.000Z</time>
4493 <extensions>
4494 <gpxtpx:TrackPointExtension>
4495 <gpxtpx:hr>145</gpxtpx:hr>
4496 </gpxtpx:TrackPointExtension>
4497 </extensions>
4498 </trkpt>
4499 <trkpt lon="115.9626856" lat="-31.905244">
4500 <ele>-2.75</ele>
4501 <time>2008-11-13T09:50:26.000Z</time>
4502 <extensions>
4503 <gpxtpx:TrackPointExtension>
4504 <gpxtpx:hr>144</gpxtpx:hr>
4505 </gpxtpx:TrackPointExtension>
4506 </extensions>
4507 </trkpt>
4508 <trkpt lon="115.962581" lat="-31.9055154">
4509 <ele>0.62</ele>
4510 <time>2008-11-13T09:50:35.000Z</time>
4511 <extensions>
4512 <gpxtpx:TrackPointExtension>
4513 <gpxtpx:hr>145</gpxtpx:hr>
4514 </gpxtpx:TrackPointExtension>
4515 </extensions>
4516 </trkpt>
4517 <trkpt lon="115.9624573" lat="-31.9058534">
4518 <ele>3.02</ele>
4519 <time>2008-11-13T09:50:46.000Z</time>
4520 <extensions>
4521 <gpxtpx:TrackPointExtension>
4522 <gpxtpx:hr>147</gpxtpx:hr>
4523 </gpxtpx:TrackPointExtension>
4524 </extensions>
4525 </trkpt>
4526 <trkpt lon="115.962348" lat="-31.9061582">
4527 <ele>2.06</ele>
4528 <time>2008-11-13T09:50:56.000Z</time>
4529 <extensions>
4530 <gpxtpx:TrackPointExtension>
4531 <gpxtpx:hr>148</gpxtpx:hr>
4532 </gpxtpx:TrackPointExtension>
4533 </extensions>
4534 </trkpt>
4535 <trkpt lon="115.962231" lat="-31.9064937">
4536 <ele>2.54</ele>
4537 <time>2008-11-13T09:51:07.000Z</time>
4538 <extensions>
4539 <gpxtpx:TrackPointExtension>
4540 <gpxtpx:hr>147</gpxtpx:hr>
4541 </gpxtpx:TrackPointExtension>
4542 </extensions>
4543 </trkpt>
4544 <trkpt lon="115.962137" lat="-31.9067761">
4545 <ele>2.06</ele>
4546 <time>2008-11-13T09:51:16.000Z</time>
4547 <extensions>
4548 <gpxtpx:TrackPointExtension>
4549 <gpxtpx:hr>146</gpxtpx:hr>
4550 </gpxtpx:TrackPointExtension>
4551 </extensions>
4552 </trkpt>
4553 <trkpt lon="115.9620314" lat="-31.9071469">
4554 <ele>3.98</ele>
4555 <time>2008-11-13T09:51:28.000Z</time>
4556 <extensions>
4557 <gpxtpx:TrackPointExtension>
4558 <gpxtpx:hr>147</gpxtpx:hr>
4559 </gpxtpx:TrackPointExtension>
4560 </extensions>
4561 </trkpt>
4562 <trkpt lon="115.9619699" lat="-31.9074314">
4563 <ele>5.91</ele>
4564 <time>2008-11-13T09:51:37.000Z</time>
4565 <extensions>
4566 <gpxtpx:TrackPointExtension>
4567 <gpxtpx:hr>147</gpxtpx:hr>
4568 </gpxtpx:TrackPointExtension>
4569 </extensions>
4570 </trkpt>
4571 <trkpt lon="115.9619209" lat="-31.9077475">
4572 <ele>5.91</ele>
4573 <time>2008-11-13T09:51:47.000Z</time>
4574 <extensions>
4575 <gpxtpx:TrackPointExtension>
4576 <gpxtpx:hr>146</gpxtpx:hr>
4577 </gpxtpx:TrackPointExtension>
4578 </extensions>
4579 </trkpt>
4580 <trkpt lon="115.9619127" lat="-31.9081008">
4581 <ele>6.87</ele>
4582 <time>2008-11-13T09:51:58.000Z</time>
4583 <extensions>
4584 <gpxtpx:TrackPointExtension>
4585 <gpxtpx:hr>146</gpxtpx:hr>
4586 </gpxtpx:TrackPointExtension>
4587 </extensions>
4588 </trkpt>
4589